<?xml version="1.0" encoding="UTF-8" standalone="no" ?>
<gpx xmlns="http://www.topografix.com/GPX/1/1" xmlns:xsi="http://www.w3.org/2001/XMLSchema-instance" xsi:schemaLocation="http://www.topografix.com/GPX/1/1 http://www.topografix.com/GPX/1/1/gpx.xsd" version="1.1" creator="VisuGPX - https://www.visugpx.com">
  <metadata>
    <name>TET_B-07_20240507</name>
    <desc><![CDATA[

]]></desc>
  </metadata>
  <wpt lat="51.28278" lon="4.83746">
    <ele>20</ele>
    <name><![CDATA[Camping Lilse Bergen]]></name>
    <desc><![CDATA[Strandweg 6, 2275 Lille]]></desc>
    <cmt><![CDATA[Strandweg 6, 2275 Lille]]></cmt>
    <type><![CDATA[user]]></type>
  </wpt>
  <wpt lat="51.24242" lon="4.7876">
    <ele>15</ele>
    <name><![CDATA[Motocross track]]></name>
    <type><![CDATA[user]]></type>
  </wpt>
  <wpt lat="51.27622" lon="4.82863">
    <ele>19</ele>
    <name><![CDATA[Tropical Beach (picknick spot)]]></name>
    <type><![CDATA[user]]></type>
  </wpt>
  <trk>
    <name><![CDATA[TET_B-07_20240507]]></name>
    <extensions>
      <line xmlns="http://www.topografix.com/GPX/gpx_style/0/2">
        <color>0000FF</color>
        <width>4</width>
      </line>
    </extensions>
    <trkseg>
      <trkpt lat="51.28269" lon="4.83709">
        <ele>24</ele>
        <time>2024-03-05T20:32:09Z</time>
      </trkpt>
      <trkpt lat="51.28272" lon="4.83701">
        <ele>24</ele>
        <time>2024-03-05T20:32:10Z</time>
      </trkpt>
      <trkpt lat="51.28317" lon="4.83539">
        <ele>27</ele>
        <time>2024-03-05T20:32:32Z</time>
      </trkpt>
      <trkpt lat="51.28332" lon="4.83483">
        <ele>24</ele>
        <time>2024-03-05T20:32:40Z</time>
      </trkpt>
      <trkpt lat="51.28331" lon="4.83472">
        <ele>24</ele>
        <time>2024-03-05T20:32:41Z</time>
      </trkpt>
      <trkpt lat="51.28302" lon="4.83416">
        <ele>24</ele>
        <time>2024-03-05T20:32:50Z</time>
      </trkpt>
      <trkpt lat="51.28265" lon="4.83337">
        <ele>24</ele>
        <time>2024-03-05T20:33:02Z</time>
      </trkpt>
      <trkpt lat="51.28242" lon="4.83279">
        <ele>24</ele>
        <time>2024-03-05T20:33:11Z</time>
      </trkpt>
      <trkpt lat="51.28242" lon="4.83279">
        <ele>24</ele>
        <time>2024-03-05T20:33:11Z</time>
      </trkpt>
      <trkpt lat="51.28235" lon="4.83273">
        <ele>24</ele>
        <time>2024-03-05T20:33:13Z</time>
      </trkpt>
      <trkpt lat="51.28284" lon="4.83182">
        <ele>22.3</ele>
        <time>2024-03-05T20:33:28Z</time>
      </trkpt>
      <trkpt lat="51.28341" lon="4.83085">
        <ele>20</ele>
        <time>2024-03-05T20:33:44Z</time>
      </trkpt>
      <trkpt lat="51.28293" lon="4.82889">
        <ele>21</ele>
        <time>2024-03-05T20:34:10Z</time>
      </trkpt>
      <trkpt lat="51.28298" lon="4.82876">
        <ele>21</ele>
        <time>2024-03-05T20:34:12Z</time>
      </trkpt>
      <trkpt lat="51.2833" lon="4.82785">
        <ele>22</ele>
        <time>2024-03-05T20:34:25Z</time>
      </trkpt>
      <trkpt lat="51.28349" lon="4.82726">
        <ele>22.5</ele>
        <time>2024-03-05T20:34:34Z</time>
      </trkpt>
      <trkpt lat="51.28361" lon="4.8267">
        <ele>22.8</ele>
        <time>2024-03-05T20:34:41Z</time>
      </trkpt>
      <trkpt lat="51.28398" lon="4.82529">
        <ele>19</ele>
        <time>2024-03-05T20:35:00Z</time>
      </trkpt>
      <trkpt lat="51.28413" lon="4.82466">
        <ele>20</ele>
        <time>2024-03-05T20:35:09Z</time>
      </trkpt>
      <trkpt lat="51.28461" lon="4.82328">
        <ele>22</ele>
        <time>2024-03-05T20:35:28Z</time>
      </trkpt>
      <trkpt lat="51.28484" lon="4.82225">
        <ele>24</ele>
        <time>2024-03-05T20:35:42Z</time>
      </trkpt>
      <trkpt lat="51.2849" lon="4.82199">
        <ele>24.5</ele>
        <time>2024-03-05T20:35:46Z</time>
      </trkpt>
      <trkpt lat="51.28515" lon="4.82072">
        <ele>23.5</ele>
        <time>2024-03-05T20:36:02Z</time>
      </trkpt>
      <trkpt lat="51.28531" lon="4.81995">
        <ele>22.3</ele>
        <time>2024-03-05T20:36:12Z</time>
      </trkpt>
      <trkpt lat="51.28609" lon="4.81587">
        <ele>22</ele>
        <time>2024-03-05T20:37:06Z</time>
      </trkpt>
      <trkpt lat="51.28631" lon="4.81485">
        <ele>26</ele>
        <time>2024-03-05T20:37:19Z</time>
      </trkpt>
      <trkpt lat="51.28782" lon="4.81177">
        <ele>23</ele>
        <time>2024-03-05T20:38:08Z</time>
      </trkpt>
      <trkpt lat="51.28821" lon="4.81069">
        <ele>22</ele>
        <time>2024-03-05T20:38:24Z</time>
      </trkpt>
      <trkpt lat="51.28834" lon="4.81027">
        <ele>23</ele>
        <time>2024-03-05T20:38:30Z</time>
      </trkpt>
      <trkpt lat="51.28844" lon="4.80955">
        <ele>22</ele>
        <time>2024-03-05T20:38:39Z</time>
      </trkpt>
      <trkpt lat="51.28911" lon="4.8037">
        <ele>19</ele>
        <time>2024-03-05T20:39:53Z</time>
      </trkpt>
      <trkpt lat="51.28915" lon="4.80313">
        <ele>19</ele>
        <time>2024-03-05T20:40:01Z</time>
      </trkpt>
      <trkpt lat="51.28917" lon="4.80187">
        <ele>19</ele>
        <time>2024-03-05T20:40:16Z</time>
      </trkpt>
      <trkpt lat="51.28914" lon="4.80138">
        <ele>20</ele>
        <time>2024-03-05T20:40:22Z</time>
      </trkpt>
      <trkpt lat="51.28877" lon="4.79794">
        <ele>18</ele>
        <time>2024-03-05T20:41:06Z</time>
      </trkpt>
      <trkpt lat="51.28876" lon="4.79772">
        <ele>18</ele>
        <time>2024-03-05T20:41:09Z</time>
      </trkpt>
      <trkpt lat="51.28884" lon="4.79576">
        <ele>18</ele>
        <time>2024-03-05T20:41:33Z</time>
      </trkpt>
      <trkpt lat="51.28893" lon="4.79525">
        <ele>18</ele>
        <time>2024-03-05T20:41:40Z</time>
      </trkpt>
      <trkpt lat="51.28941" lon="4.79336">
        <ele>18</ele>
        <time>2024-03-05T20:42:06Z</time>
      </trkpt>
      <trkpt lat="51.28963" lon="4.79237">
        <ele>18</ele>
        <time>2024-03-05T20:42:19Z</time>
      </trkpt>
      <trkpt lat="51.28972" lon="4.79212">
        <ele>18</ele>
        <time>2024-03-05T20:42:22Z</time>
      </trkpt>
      <trkpt lat="51.29064" lon="4.79012">
        <ele>19</ele>
        <time>2024-03-05T20:42:53Z</time>
      </trkpt>
      <trkpt lat="51.2907" lon="4.78988">
        <ele>19</ele>
        <time>2024-03-05T20:42:57Z</time>
      </trkpt>
      <trkpt lat="51.29089" lon="4.78862">
        <ele>18</ele>
        <time>2024-03-05T20:43:13Z</time>
      </trkpt>
      <trkpt lat="51.29105" lon="4.78771">
        <ele>19</ele>
        <time>2024-03-05T20:43:25Z</time>
      </trkpt>
      <trkpt lat="51.29108" lon="4.78763">
        <ele>19</ele>
        <time>2024-03-05T20:43:26Z</time>
      </trkpt>
      <trkpt lat="51.29114" lon="4.78754">
        <ele>19</ele>
        <time>2024-03-05T20:43:28Z</time>
      </trkpt>
      <trkpt lat="51.29128" lon="4.78746">
        <ele>19</ele>
        <time>2024-03-05T20:43:31Z</time>
      </trkpt>
      <trkpt lat="51.29139" lon="4.78747">
        <ele>18</ele>
        <time>2024-03-05T20:43:33Z</time>
      </trkpt>
      <trkpt lat="51.29256" lon="4.78814">
        <ele>19</ele>
        <time>2024-03-05T20:43:58Z</time>
      </trkpt>
      <trkpt lat="51.29267" lon="4.78815">
        <ele>19</ele>
        <time>2024-03-05T20:44:00Z</time>
      </trkpt>
      <trkpt lat="51.29327" lon="4.78795">
        <ele>19</ele>
        <time>2024-03-05T20:44:12Z</time>
      </trkpt>
      <trkpt lat="51.29343" lon="4.78785">
        <ele>19</ele>
        <time>2024-03-05T20:44:16Z</time>
      </trkpt>
      <trkpt lat="51.2936" lon="4.78766">
        <ele>20</ele>
        <time>2024-03-05T20:44:20Z</time>
      </trkpt>
      <trkpt lat="51.29399" lon="4.78696">
        <ele>20</ele>
        <time>2024-03-05T20:44:31Z</time>
      </trkpt>
      <trkpt lat="51.294" lon="4.7868">
        <ele>20</ele>
        <time>2024-03-05T20:44:33Z</time>
      </trkpt>
      <trkpt lat="51.29396" lon="4.7859">
        <ele>20</ele>
        <time>2024-03-05T20:44:45Z</time>
      </trkpt>
      <trkpt lat="51.29396" lon="4.78556">
        <ele>20</ele>
        <time>2024-03-05T20:44:49Z</time>
      </trkpt>
      <trkpt lat="51.29403" lon="4.78454">
        <ele>20</ele>
        <time>2024-03-05T20:45:02Z</time>
      </trkpt>
      <trkpt lat="51.29449" lon="4.781">
        <ele>21</ele>
        <time>2024-03-05T20:45:47Z</time>
      </trkpt>
      <trkpt lat="51.29489" lon="4.78108">
        <ele>22</ele>
        <time>2024-03-05T20:45:55Z</time>
      </trkpt>
      <trkpt lat="51.29528" lon="4.78108">
        <ele>21</ele>
        <time>2024-03-05T20:46:03Z</time>
      </trkpt>
      <trkpt lat="51.29534" lon="4.77913">
        <ele>21</ele>
        <time>2024-03-05T20:46:27Z</time>
      </trkpt>
      <trkpt lat="51.29536" lon="4.77904">
        <ele>21</ele>
        <time>2024-03-05T20:46:29Z</time>
      </trkpt>
      <trkpt lat="51.29537" lon="4.77872">
        <ele>21</ele>
        <time>2024-03-05T20:46:33Z</time>
      </trkpt>
      <trkpt lat="51.29536" lon="4.77865">
        <ele>21</ele>
        <time>2024-03-05T20:46:33Z</time>
      </trkpt>
      <trkpt lat="51.29539" lon="4.77743">
        <ele>21</ele>
        <time>2024-03-05T20:46:49Z</time>
      </trkpt>
      <trkpt lat="51.29527" lon="4.7774">
        <ele>21</ele>
        <time>2024-03-05T20:46:51Z</time>
      </trkpt>
      <trkpt lat="51.29531" lon="4.77664">
        <ele>21</ele>
        <time>2024-03-05T20:47:01Z</time>
      </trkpt>
      <trkpt lat="51.29557" lon="4.77505">
        <ele>20</ele>
        <time>2024-03-05T20:47:21Z</time>
      </trkpt>
      <trkpt lat="51.29574" lon="4.77414">
        <ele>20</ele>
        <time>2024-03-05T20:47:33Z</time>
      </trkpt>
      <trkpt lat="51.29671" lon="4.76981">
        <ele>22</ele>
        <time>2024-03-05T20:48:31Z</time>
      </trkpt>
      <trkpt lat="51.29821" lon="4.75773">
        <ele>20</ele>
        <time>2024-03-05T20:51:05Z</time>
      </trkpt>
      <trkpt lat="51.2983" lon="4.75572">
        <ele>20</ele>
        <time>2024-03-05T20:51:30Z</time>
      </trkpt>
      <trkpt lat="51.29837" lon="4.75528">
        <ele>20</ele>
        <time>2024-03-05T20:51:36Z</time>
      </trkpt>
      <trkpt lat="51.29964" lon="4.75054">
        <ele>22</ele>
        <time>2024-03-05T20:52:40Z</time>
      </trkpt>
      <trkpt lat="51.30135" lon="4.75114">
        <ele>23</ele>
        <time>2024-03-05T20:53:15Z</time>
      </trkpt>
      <trkpt lat="51.30158" lon="4.75112">
        <ele>23</ele>
        <time>2024-03-05T20:53:20Z</time>
      </trkpt>
      <trkpt lat="51.30412" lon="4.752">
        <ele>26</ele>
        <time>2024-03-05T20:54:12Z</time>
      </trkpt>
      <trkpt lat="51.30431" lon="4.7521">
        <ele>26</ele>
        <time>2024-03-05T20:54:16Z</time>
      </trkpt>
      <trkpt lat="51.30465" lon="4.75246">
        <ele>25</ele>
        <time>2024-03-05T20:54:24Z</time>
      </trkpt>
      <trkpt lat="51.3048" lon="4.75257">
        <ele>25</ele>
        <time>2024-03-05T20:54:27Z</time>
      </trkpt>
      <trkpt lat="51.30698" lon="4.75363">
        <ele>26</ele>
        <time>2024-03-05T20:55:13Z</time>
      </trkpt>
      <trkpt lat="51.30709" lon="4.75366">
        <ele>24</ele>
        <time>2024-03-05T20:55:15Z</time>
      </trkpt>
      <trkpt lat="51.30709" lon="4.75366">
        <ele>24.3</ele>
        <time>2024-03-05T20:55:15Z</time>
      </trkpt>
      <trkpt lat="51.30717" lon="4.75345">
        <ele>24.8</ele>
        <time>2024-03-05T20:55:18Z</time>
      </trkpt>
      <trkpt lat="51.30734" lon="4.75318">
        <ele>25.8</ele>
        <time>2024-03-05T20:55:23Z</time>
      </trkpt>
      <trkpt lat="51.3084" lon="4.75156">
        <ele>25.5</ele>
        <time>2024-03-05T20:55:52Z</time>
      </trkpt>
      <trkpt lat="51.30843" lon="4.75149">
        <ele>25.3</ele>
        <time>2024-03-05T20:55:53Z</time>
      </trkpt>
      <trkpt lat="51.30797" lon="4.74989">
        <ele>23.3</ele>
        <time>2024-03-05T20:56:15Z</time>
      </trkpt>
      <trkpt lat="51.30793" lon="4.74972">
        <ele>23.3</ele>
        <time>2024-03-05T20:56:18Z</time>
      </trkpt>
      <trkpt lat="51.30796" lon="4.74967">
        <ele>23.3</ele>
        <time>2024-03-05T20:56:18Z</time>
      </trkpt>
      <trkpt lat="51.3085" lon="4.7493">
        <ele>22.8</ele>
        <time>2024-03-05T20:56:30Z</time>
      </trkpt>
      <trkpt lat="51.30906" lon="4.7489">
        <ele>23.3</ele>
        <time>2024-03-05T20:56:43Z</time>
      </trkpt>
      <trkpt lat="51.3112" lon="4.74742">
        <ele>23</ele>
        <time>2024-03-05T20:57:29Z</time>
      </trkpt>
      <trkpt lat="51.31129" lon="4.74724">
        <ele>23</ele>
        <time>2024-03-05T20:57:32Z</time>
      </trkpt>
      <trkpt lat="51.31139" lon="4.74733">
        <ele>23</ele>
        <time>2024-03-05T20:57:34Z</time>
      </trkpt>
      <trkpt lat="51.31183" lon="4.74627">
        <ele>23.8</ele>
        <time>2024-03-05T20:57:50Z</time>
      </trkpt>
      <trkpt lat="51.31232" lon="4.74505">
        <ele>23</ele>
        <time>2024-03-05T20:58:08Z</time>
      </trkpt>
      <trkpt lat="51.31235" lon="4.74496">
        <ele>23</ele>
        <time>2024-03-05T20:58:10Z</time>
      </trkpt>
      <trkpt lat="51.31242" lon="4.7449">
        <ele>23</ele>
        <time>2024-03-05T20:58:11Z</time>
      </trkpt>
      <trkpt lat="51.31244" lon="4.74486">
        <ele>23</ele>
        <time>2024-03-05T20:58:12Z</time>
      </trkpt>
      <trkpt lat="51.31268" lon="4.74428">
        <ele>23.5</ele>
        <time>2024-03-05T20:58:21Z</time>
      </trkpt>
      <trkpt lat="51.31271" lon="4.74421">
        <ele>23.8</ele>
        <time>2024-03-05T20:58:22Z</time>
      </trkpt>
      <trkpt lat="51.31275" lon="4.74418">
        <ele>23.8</ele>
        <time>2024-03-05T20:58:23Z</time>
      </trkpt>
      <trkpt lat="51.31279" lon="4.7442">
        <ele>23.8</ele>
        <time>2024-03-05T20:58:23Z</time>
      </trkpt>
      <trkpt lat="51.31299" lon="4.74436">
        <ele>23.8</ele>
        <time>2024-03-05T20:58:28Z</time>
      </trkpt>
      <trkpt lat="51.31302" lon="4.74439">
        <ele>23.5</ele>
        <time>2024-03-05T20:58:29Z</time>
      </trkpt>
      <trkpt lat="51.31376" lon="4.74503">
        <ele>23.3</ele>
        <time>2024-03-05T20:58:45Z</time>
      </trkpt>
      <trkpt lat="51.31396" lon="4.7452">
        <ele>23.5</ele>
        <time>2024-03-05T20:58:50Z</time>
      </trkpt>
      <trkpt lat="51.31462" lon="4.74535">
        <ele>23.3</ele>
        <time>2024-03-05T20:59:03Z</time>
      </trkpt>
      <trkpt lat="51.31516" lon="4.74546">
        <ele>22.8</ele>
        <time>2024-03-05T20:59:14Z</time>
      </trkpt>
      <trkpt lat="51.31534" lon="4.7456">
        <ele>22.5</ele>
        <time>2024-03-05T20:59:18Z</time>
      </trkpt>
      <trkpt lat="51.31556" lon="4.74604">
        <ele>22.3</ele>
        <time>2024-03-05T20:59:25Z</time>
      </trkpt>
      <trkpt lat="51.31583" lon="4.74654">
        <ele>22.8</ele>
        <time>2024-03-05T20:59:33Z</time>
      </trkpt>
      <trkpt lat="51.31602" lon="4.74683">
        <ele>22.8</ele>
        <time>2024-03-05T20:59:39Z</time>
      </trkpt>
      <trkpt lat="51.31614" lon="4.74693">
        <ele>22.8</ele>
        <time>2024-03-05T20:59:41Z</time>
      </trkpt>
      <trkpt lat="51.31655" lon="4.74707">
        <ele>22.8</ele>
        <time>2024-03-05T20:59:50Z</time>
      </trkpt>
      <trkpt lat="51.31703" lon="4.74721">
        <ele>23.3</ele>
        <time>2024-03-05T20:59:59Z</time>
      </trkpt>
      <trkpt lat="51.3175" lon="4.74738">
        <ele>23.8</ele>
        <time>2024-03-05T21:00:09Z</time>
      </trkpt>
      <trkpt lat="51.31774" lon="4.74751">
        <ele>23.8</ele>
        <time>2024-03-05T21:00:14Z</time>
      </trkpt>
      <trkpt lat="51.31792" lon="4.74763">
        <ele>23.8</ele>
        <time>2024-03-05T21:00:18Z</time>
      </trkpt>
      <trkpt lat="51.31798" lon="4.74763">
        <ele>23.8</ele>
        <time>2024-03-05T21:00:19Z</time>
      </trkpt>
      <trkpt lat="51.31803" lon="4.74759">
        <ele>23.8</ele>
        <time>2024-03-05T21:00:20Z</time>
      </trkpt>
      <trkpt lat="51.31804" lon="4.74753">
        <ele>23.8</ele>
        <time>2024-03-05T21:00:21Z</time>
      </trkpt>
      <trkpt lat="51.31818" lon="4.74274">
        <ele>23.5</ele>
        <time>2024-03-05T21:01:21Z</time>
      </trkpt>
      <trkpt lat="51.3183" lon="4.73902">
        <ele>23</ele>
        <time>2024-03-05T21:02:08Z</time>
      </trkpt>
      <trkpt lat="51.32112" lon="4.7398">
        <ele>24.3</ele>
        <time>2024-03-05T21:03:05Z</time>
      </trkpt>
      <trkpt lat="51.32115" lon="4.73981">
        <ele>24.5</ele>
        <time>2024-03-05T21:03:06Z</time>
      </trkpt>
      <trkpt lat="51.32332" lon="4.72913">
        <ele>24.8</ele>
        <time>2024-03-05T21:05:26Z</time>
      </trkpt>
      <trkpt lat="51.32362" lon="4.72764">
        <ele>25.3</ele>
        <time>2024-03-05T21:05:46Z</time>
      </trkpt>
      <trkpt lat="51.3242" lon="4.72488">
        <ele>26.8</ele>
        <time>2024-03-05T21:06:22Z</time>
      </trkpt>
      <trkpt lat="51.32411" lon="4.72481">
        <ele>26.5</ele>
        <time>2024-03-05T21:06:24Z</time>
      </trkpt>
      <trkpt lat="51.32339" lon="4.72425">
        <ele>25.8</ele>
        <time>2024-03-05T21:06:40Z</time>
      </trkpt>
      <trkpt lat="51.32153" lon="4.72274">
        <ele>25.5</ele>
        <time>2024-03-05T21:07:22Z</time>
      </trkpt>
      <trkpt lat="51.32143" lon="4.72263">
        <ele>25.5</ele>
        <time>2024-03-05T21:07:24Z</time>
      </trkpt>
      <trkpt lat="51.32034" lon="4.72031">
        <ele>27</ele>
        <time>2024-03-05T21:08:00Z</time>
      </trkpt>
      <trkpt lat="51.31901" lon="4.71743">
        <ele>26.3</ele>
        <time>2024-03-05T21:08:45Z</time>
      </trkpt>
      <trkpt lat="51.31812" lon="4.71549">
        <ele>25.5</ele>
        <time>2024-03-05T21:09:15Z</time>
      </trkpt>
      <trkpt lat="51.31807" lon="4.71537">
        <ele>25.5</ele>
        <time>2024-03-05T21:09:17Z</time>
      </trkpt>
      <trkpt lat="51.31804" lon="4.71525">
        <ele>25.5</ele>
        <time>2024-03-05T21:09:19Z</time>
      </trkpt>
      <trkpt lat="51.31795" lon="4.71426">
        <ele>25</ele>
        <time>2024-03-05T21:09:31Z</time>
      </trkpt>
      <trkpt lat="51.31791" lon="4.71419">
        <ele>24.8</ele>
        <time>2024-03-05T21:09:32Z</time>
      </trkpt>
      <trkpt lat="51.31773" lon="4.71395">
        <ele>24.5</ele>
        <time>2024-03-05T21:09:37Z</time>
      </trkpt>
      <trkpt lat="51.31655" lon="4.71269">
        <ele>24.8</ele>
        <time>2024-03-05T21:10:05Z</time>
      </trkpt>
      <trkpt lat="51.31649" lon="4.71267">
        <ele>24.8</ele>
        <time>2024-03-05T21:10:07Z</time>
      </trkpt>
      <trkpt lat="51.31651" lon="4.71257">
        <ele>24.8</ele>
        <time>2024-03-05T21:10:08Z</time>
      </trkpt>
      <trkpt lat="51.3165" lon="4.71233">
        <ele>24.8</ele>
        <time>2024-03-05T21:10:11Z</time>
      </trkpt>
      <trkpt lat="51.31635" lon="4.70805">
        <ele>25.5</ele>
        <time>2024-03-05T21:11:05Z</time>
      </trkpt>
      <trkpt lat="51.31647" lon="4.70723">
        <ele>26</ele>
        <time>2024-03-05T21:11:15Z</time>
      </trkpt>
      <trkpt lat="51.31655" lon="4.70671">
        <ele>26</ele>
        <time>2024-03-05T21:11:22Z</time>
      </trkpt>
      <trkpt lat="51.31689" lon="4.7044">
        <ele>29.5</ele>
        <time>2024-03-05T21:11:52Z</time>
      </trkpt>
      <trkpt lat="51.31691" lon="4.7042">
        <ele>29.8</ele>
        <time>2024-03-05T21:11:54Z</time>
      </trkpt>
      <trkpt lat="51.3169" lon="4.70396">
        <ele>30</ele>
        <time>2024-03-05T21:11:57Z</time>
      </trkpt>
      <trkpt lat="51.31677" lon="4.7029">
        <ele>32.3</ele>
        <time>2024-03-05T21:12:11Z</time>
      </trkpt>
      <trkpt lat="51.31666" lon="4.70225">
        <ele>33</ele>
        <time>2024-03-05T21:12:19Z</time>
      </trkpt>
      <trkpt lat="51.31736" lon="4.7019">
        <ele>28</ele>
        <time>2024-03-05T21:12:34Z</time>
      </trkpt>
      <trkpt lat="51.31906" lon="4.70099">
        <ele>26.8</ele>
        <time>2024-03-05T21:13:10Z</time>
      </trkpt>
      <trkpt lat="51.31916" lon="4.70092">
        <ele>26.8</ele>
        <time>2024-03-05T21:13:12Z</time>
      </trkpt>
      <trkpt lat="51.31926" lon="4.70075">
        <ele>27</ele>
        <time>2024-03-05T21:13:15Z</time>
      </trkpt>
      <trkpt lat="51.32122" lon="4.69633">
        <ele>26</ele>
        <time>2024-03-05T21:14:22Z</time>
      </trkpt>
      <trkpt lat="51.32132" lon="4.69625">
        <ele>26</ele>
        <time>2024-03-05T21:14:25Z</time>
      </trkpt>
      <trkpt lat="51.32156" lon="4.69614">
        <ele>26</ele>
        <time>2024-03-05T21:14:30Z</time>
      </trkpt>
      <trkpt lat="51.32173" lon="4.69613">
        <ele>25.8</ele>
        <time>2024-03-05T21:14:33Z</time>
      </trkpt>
      <trkpt lat="51.32338" lon="4.69508">
        <ele>25.8</ele>
        <time>2024-03-05T21:15:09Z</time>
      </trkpt>
      <trkpt lat="51.32345" lon="4.695">
        <ele>25.8</ele>
        <time>2024-03-05T21:15:10Z</time>
      </trkpt>
      <trkpt lat="51.32473" lon="4.69418">
        <ele>26.3</ele>
        <time>2024-03-05T21:15:38Z</time>
      </trkpt>
      <trkpt lat="51.3253" lon="4.69381">
        <ele>25.5</ele>
        <time>2024-03-05T21:15:50Z</time>
      </trkpt>
      <trkpt lat="51.32654" lon="4.69302">
        <ele>26</ele>
        <time>2024-03-05T21:16:17Z</time>
      </trkpt>
      <trkpt lat="51.32702" lon="4.69271">
        <ele>27</ele>
        <time>2024-03-05T21:16:27Z</time>
      </trkpt>
      <trkpt lat="51.32707" lon="4.69268">
        <ele>27.3</ele>
        <time>2024-03-05T21:16:28Z</time>
      </trkpt>
      <trkpt lat="51.32962" lon="4.69102">
        <ele>25</ele>
        <time>2024-03-05T21:17:23Z</time>
      </trkpt>
      <trkpt lat="51.33575" lon="4.68705">
        <ele>24</ele>
        <time>2024-03-05T21:19:36Z</time>
      </trkpt>
      <trkpt lat="51.33536" lon="4.68496">
        <ele>26</ele>
        <time>2024-03-05T21:20:03Z</time>
      </trkpt>
      <trkpt lat="51.33533" lon="4.68492">
        <ele>26</ele>
        <time>2024-03-05T21:20:04Z</time>
      </trkpt>
      <trkpt lat="51.33529" lon="4.68491">
        <ele>26.3</ele>
        <time>2024-03-05T21:20:04Z</time>
      </trkpt>
      <trkpt lat="51.33526" lon="4.68492">
        <ele>26.3</ele>
        <time>2024-03-05T21:20:05Z</time>
      </trkpt>
      <trkpt lat="51.3351" lon="4.68504">
        <ele>26.5</ele>
        <time>2024-03-05T21:20:08Z</time>
      </trkpt>
      <trkpt lat="51.33507" lon="4.68506">
        <ele>26.8</ele>
        <time>2024-03-05T21:20:09Z</time>
      </trkpt>
      <trkpt lat="51.33503" lon="4.68505">
        <ele>26.8</ele>
        <time>2024-03-05T21:20:10Z</time>
      </trkpt>
      <trkpt lat="51.33501" lon="4.68502">
        <ele>26.8</ele>
        <time>2024-03-05T21:20:11Z</time>
      </trkpt>
      <trkpt lat="51.33499" lon="4.68496">
        <ele>26.8</ele>
        <time>2024-03-05T21:20:11Z</time>
      </trkpt>
      <trkpt lat="51.33498" lon="4.68486">
        <ele>26.8</ele>
        <time>2024-03-05T21:20:13Z</time>
      </trkpt>
      <trkpt lat="51.33497" lon="4.68468">
        <ele>26.8</ele>
        <time>2024-03-05T21:20:15Z</time>
      </trkpt>
      <trkpt lat="51.33501" lon="4.68349">
        <ele>26.8</ele>
        <time>2024-03-05T21:20:30Z</time>
      </trkpt>
      <trkpt lat="51.33506" lon="4.6816">
        <ele>25</ele>
        <time>2024-03-05T21:20:53Z</time>
      </trkpt>
      <trkpt lat="51.33495" lon="4.68085">
        <ele>25</ele>
        <time>2024-03-05T21:21:03Z</time>
      </trkpt>
      <trkpt lat="51.3349" lon="4.68059">
        <ele>25</ele>
        <time>2024-03-05T21:21:06Z</time>
      </trkpt>
      <trkpt lat="51.33479" lon="4.68024">
        <ele>25</ele>
        <time>2024-03-05T21:21:11Z</time>
      </trkpt>
      <trkpt lat="51.33483" lon="4.68014">
        <ele>25</ele>
        <time>2024-03-05T21:21:13Z</time>
      </trkpt>
      <trkpt lat="51.33504" lon="4.67989">
        <ele>25</ele>
        <time>2024-03-05T21:21:18Z</time>
      </trkpt>
      <trkpt lat="51.33519" lon="4.67968">
        <ele>25</ele>
        <time>2024-03-05T21:21:22Z</time>
      </trkpt>
      <trkpt lat="51.33718" lon="4.67718">
        <ele>23.8</ele>
        <time>2024-03-05T21:22:13Z</time>
      </trkpt>
      <trkpt lat="51.33806" lon="4.67607">
        <ele>23.3</ele>
        <time>2024-03-05T21:22:35Z</time>
      </trkpt>
      <trkpt lat="51.33823" lon="4.67622">
        <ele>23.3</ele>
        <time>2024-03-05T21:22:39Z</time>
      </trkpt>
      <trkpt lat="51.33826" lon="4.67629">
        <ele>23.3</ele>
        <time>2024-03-05T21:22:40Z</time>
      </trkpt>
      <trkpt lat="51.33834" lon="4.67645">
        <ele>23.3</ele>
        <time>2024-03-05T21:22:43Z</time>
      </trkpt>
      <trkpt lat="51.33846" lon="4.67629">
        <ele>23.5</ele>
        <time>2024-03-05T21:22:46Z</time>
      </trkpt>
      <trkpt lat="51.33869" lon="4.67603">
        <ele>24</ele>
        <time>2024-03-05T21:22:51Z</time>
      </trkpt>
      <trkpt lat="51.33894" lon="4.6758">
        <ele>24.5</ele>
        <time>2024-03-05T21:22:57Z</time>
      </trkpt>
      <trkpt lat="51.33921" lon="4.67557">
        <ele>24.8</ele>
        <time>2024-03-05T21:23:03Z</time>
      </trkpt>
      <trkpt lat="51.33943" lon="4.67542">
        <ele>24.5</ele>
        <time>2024-03-05T21:23:08Z</time>
      </trkpt>
      <trkpt lat="51.34065" lon="4.67468">
        <ele>23.5</ele>
        <time>2024-03-05T21:23:34Z</time>
      </trkpt>
      <trkpt lat="51.34137" lon="4.67423">
        <ele>24.5</ele>
        <time>2024-03-05T21:23:49Z</time>
      </trkpt>
      <trkpt lat="51.34349" lon="4.67293">
        <ele>26</ele>
        <time>2024-03-05T21:24:35Z</time>
      </trkpt>
      <trkpt lat="51.34398" lon="4.67264">
        <ele>24.8</ele>
        <time>2024-03-05T21:24:45Z</time>
      </trkpt>
      <trkpt lat="51.34683" lon="4.6709">
        <ele>22.8</ele>
        <time>2024-03-05T21:25:47Z</time>
      </trkpt>
      <trkpt lat="51.34705" lon="4.67076">
        <ele>22.5</ele>
        <time>2024-03-05T21:25:51Z</time>
      </trkpt>
      <trkpt lat="51.34718" lon="4.67066">
        <ele>22.3</ele>
        <time>2024-03-05T21:25:54Z</time>
      </trkpt>
      <trkpt lat="51.34726" lon="4.6706">
        <ele>22.3</ele>
        <time>2024-03-05T21:25:56Z</time>
      </trkpt>
      <trkpt lat="51.34736" lon="4.67047">
        <ele>22</ele>
        <time>2024-03-05T21:25:58Z</time>
      </trkpt>
      <trkpt lat="51.34741" lon="4.67044">
        <ele>22</ele>
        <time>2024-03-05T21:26:00Z</time>
      </trkpt>
      <trkpt lat="51.34747" lon="4.67036">
        <ele>22</ele>
        <time>2024-03-05T21:26:01Z</time>
      </trkpt>
      <trkpt lat="51.34755" lon="4.67028">
        <ele>22</ele>
        <time>2024-03-05T21:26:03Z</time>
      </trkpt>
      <trkpt lat="51.34759" lon="4.67024">
        <ele>22</ele>
        <time>2024-03-05T21:26:04Z</time>
      </trkpt>
      <trkpt lat="51.34764" lon="4.67019">
        <ele>22</ele>
        <time>2024-03-05T21:26:05Z</time>
      </trkpt>
      <trkpt lat="51.34767" lon="4.67019">
        <ele>22</ele>
        <time>2024-03-05T21:26:06Z</time>
      </trkpt>
      <trkpt lat="51.3477" lon="4.67019">
        <ele>22</ele>
        <time>2024-03-05T21:26:06Z</time>
      </trkpt>
      <trkpt lat="51.34773" lon="4.67017">
        <ele>22.3</ele>
        <time>2024-03-05T21:26:07Z</time>
      </trkpt>
      <trkpt lat="51.34775" lon="4.67015">
        <ele>22.3</ele>
        <time>2024-03-05T21:26:07Z</time>
      </trkpt>
      <trkpt lat="51.34779" lon="4.67009">
        <ele>22.3</ele>
        <time>2024-03-05T21:26:08Z</time>
      </trkpt>
      <trkpt lat="51.3478" lon="4.67004">
        <ele>22.3</ele>
        <time>2024-03-05T21:26:09Z</time>
      </trkpt>
      <trkpt lat="51.34781" lon="4.66999">
        <ele>22.3</ele>
        <time>2024-03-05T21:26:10Z</time>
      </trkpt>
      <trkpt lat="51.3478" lon="4.6699">
        <ele>22.3</ele>
        <time>2024-03-05T21:26:11Z</time>
      </trkpt>
      <trkpt lat="51.34784" lon="4.66972">
        <ele>22.3</ele>
        <time>2024-03-05T21:26:13Z</time>
      </trkpt>
      <trkpt lat="51.3479" lon="4.66952">
        <ele>22</ele>
        <time>2024-03-05T21:26:16Z</time>
      </trkpt>
      <trkpt lat="51.34792" lon="4.66941">
        <ele>22</ele>
        <time>2024-03-05T21:26:18Z</time>
      </trkpt>
      <trkpt lat="51.34852" lon="4.66784">
        <ele>22.5</ele>
        <time>2024-03-05T21:26:40Z</time>
      </trkpt>
      <trkpt lat="51.3486" lon="4.6676">
        <ele>22.8</ele>
        <time>2024-03-05T21:26:44Z</time>
      </trkpt>
      <trkpt lat="51.34872" lon="4.66732">
        <ele>23</ele>
        <time>2024-03-05T21:26:48Z</time>
      </trkpt>
      <trkpt lat="51.34878" lon="4.66734">
        <ele>23</ele>
        <time>2024-03-05T21:26:49Z</time>
      </trkpt>
      <trkpt lat="51.34885" lon="4.66732">
        <ele>23</ele>
        <time>2024-03-05T21:26:51Z</time>
      </trkpt>
      <trkpt lat="51.34908" lon="4.66721">
        <ele>23.3</ele>
        <time>2024-03-05T21:26:56Z</time>
      </trkpt>
      <trkpt lat="51.34971" lon="4.66693">
        <ele>23</ele>
        <time>2024-03-05T21:27:09Z</time>
      </trkpt>
      <trkpt lat="51.35041" lon="4.66668">
        <ele>22.5</ele>
        <time>2024-03-05T21:27:23Z</time>
      </trkpt>
      <trkpt lat="51.35058" lon="4.66661">
        <ele>22.3</ele>
        <time>2024-03-05T21:27:27Z</time>
      </trkpt>
      <trkpt lat="51.35084" lon="4.66648">
        <ele>22</ele>
        <time>2024-03-05T21:27:32Z</time>
      </trkpt>
      <trkpt lat="51.35105" lon="4.66636">
        <ele>22</ele>
        <time>2024-03-05T21:27:36Z</time>
      </trkpt>
      <trkpt lat="51.35123" lon="4.66622">
        <ele>22</ele>
        <time>2024-03-05T21:27:40Z</time>
      </trkpt>
      <trkpt lat="51.35175" lon="4.66578">
        <ele>21.8</ele>
        <time>2024-03-05T21:27:52Z</time>
      </trkpt>
      <trkpt lat="51.35204" lon="4.66554">
        <ele>21.8</ele>
        <time>2024-03-05T21:27:59Z</time>
      </trkpt>
      <trkpt lat="51.35258" lon="4.66523">
        <ele>22</ele>
        <time>2024-03-05T21:28:10Z</time>
      </trkpt>
      <trkpt lat="51.35337" lon="4.66479">
        <ele>22</ele>
        <time>2024-03-05T21:28:27Z</time>
      </trkpt>
      <trkpt lat="51.3556" lon="4.66367">
        <ele>21.5</ele>
        <time>2024-03-05T21:29:14Z</time>
      </trkpt>
      <trkpt lat="51.3569" lon="4.66299">
        <ele>21</ele>
        <time>2024-03-05T21:29:41Z</time>
      </trkpt>
      <trkpt lat="51.35958" lon="4.66156">
        <ele>20</ele>
        <time>2024-03-05T21:30:37Z</time>
      </trkpt>
      <trkpt lat="51.35972" lon="4.66148">
        <ele>20</ele>
        <time>2024-03-05T21:30:40Z</time>
      </trkpt>
      <trkpt lat="51.3606" lon="4.66085">
        <ele>20</ele>
        <time>2024-03-05T21:31:00Z</time>
      </trkpt>
      <trkpt lat="51.36167" lon="4.66008">
        <ele>18.8</ele>
        <time>2024-03-05T21:31:23Z</time>
      </trkpt>
      <trkpt lat="51.36183" lon="4.65996">
        <ele>18.8</ele>
        <time>2024-03-05T21:31:27Z</time>
      </trkpt>
      <trkpt lat="51.362" lon="4.65977">
        <ele>18.8</ele>
        <time>2024-03-05T21:31:31Z</time>
      </trkpt>
      <trkpt lat="51.36266" lon="4.65896">
        <ele>19</ele>
        <time>2024-03-05T21:31:48Z</time>
      </trkpt>
      <trkpt lat="51.36288" lon="4.65877">
        <ele>18.8</ele>
        <time>2024-03-05T21:31:53Z</time>
      </trkpt>
      <trkpt lat="51.36346" lon="4.65808">
        <ele>18.3</ele>
        <time>2024-03-05T21:32:07Z</time>
      </trkpt>
      <trkpt lat="51.36498" lon="4.65634">
        <ele>18.8</ele>
        <time>2024-03-05T21:32:44Z</time>
      </trkpt>
      <trkpt lat="51.36558" lon="4.65562">
        <ele>18.3</ele>
        <time>2024-03-05T21:32:59Z</time>
      </trkpt>
      <trkpt lat="51.36734" lon="4.65338">
        <ele>18</ele>
        <time>2024-03-05T21:33:44Z</time>
      </trkpt>
      <trkpt lat="51.36875" lon="4.65584">
        <ele>18.5</ele>
        <time>2024-03-05T21:34:26Z</time>
      </trkpt>
      <trkpt lat="51.36888" lon="4.65545">
        <ele>18.3</ele>
        <time>2024-03-05T21:34:32Z</time>
      </trkpt>
      <trkpt lat="51.36897" lon="4.65533">
        <ele>18</ele>
        <time>2024-03-05T21:34:34Z</time>
      </trkpt>
      <trkpt lat="51.36912" lon="4.6552">
        <ele>18</ele>
        <time>2024-03-05T21:34:37Z</time>
      </trkpt>
      <trkpt lat="51.36936" lon="4.65502">
        <ele>18</ele>
        <time>2024-03-05T21:34:43Z</time>
      </trkpt>
      <trkpt lat="51.3695" lon="4.65499">
        <ele>17.8</ele>
        <time>2024-03-05T21:34:45Z</time>
      </trkpt>
      <trkpt lat="51.36978" lon="4.65499">
        <ele>17.8</ele>
        <time>2024-03-05T21:34:51Z</time>
      </trkpt>
      <trkpt lat="51.37014" lon="4.65508">
        <ele>18</ele>
        <time>2024-03-05T21:34:58Z</time>
      </trkpt>
      <trkpt lat="51.3703" lon="4.65503">
        <ele>18</ele>
        <time>2024-03-05T21:35:02Z</time>
      </trkpt>
      <trkpt lat="51.37095" lon="4.65477">
        <ele>17.8</ele>
        <time>2024-03-05T21:35:15Z</time>
      </trkpt>
      <trkpt lat="51.37151" lon="4.65457">
        <ele>17.5</ele>
        <time>2024-03-05T21:35:27Z</time>
      </trkpt>
      <trkpt lat="51.37214" lon="4.65441">
        <ele>17.5</ele>
        <time>2024-03-05T21:35:39Z</time>
      </trkpt>
      <trkpt lat="51.37229" lon="4.65459">
        <ele>17.3</ele>
        <time>2024-03-05T21:35:43Z</time>
      </trkpt>
      <trkpt lat="51.37233" lon="4.65475">
        <ele>17.3</ele>
        <time>2024-03-05T21:35:45Z</time>
      </trkpt>
      <trkpt lat="51.37239" lon="4.65498">
        <ele>17</ele>
        <time>2024-03-05T21:35:48Z</time>
      </trkpt>
      <trkpt lat="51.37239" lon="4.65505">
        <ele>17</ele>
        <time>2024-03-05T21:35:49Z</time>
      </trkpt>
      <trkpt lat="51.37239" lon="4.6552">
        <ele>17</ele>
        <time>2024-03-05T21:35:51Z</time>
      </trkpt>
      <trkpt lat="51.37234" lon="4.65537">
        <ele>17</ele>
        <time>2024-03-05T21:35:53Z</time>
      </trkpt>
      <trkpt lat="51.37221" lon="4.65566">
        <ele>17.3</ele>
        <time>2024-03-05T21:35:58Z</time>
      </trkpt>
      <trkpt lat="51.37208" lon="4.65587">
        <ele>17.5</ele>
        <time>2024-03-05T21:36:02Z</time>
      </trkpt>
      <trkpt lat="51.37179" lon="4.65607">
        <ele>17.8</ele>
        <time>2024-03-05T21:36:08Z</time>
      </trkpt>
      <trkpt lat="51.37154" lon="4.65614">
        <ele>18</ele>
        <time>2024-03-05T21:36:13Z</time>
      </trkpt>
      <trkpt lat="51.37109" lon="4.65624">
        <ele>18</ele>
        <time>2024-03-05T21:36:22Z</time>
      </trkpt>
      <trkpt lat="51.37049" lon="4.65627">
        <ele>17.8</ele>
        <time>2024-03-05T21:36:34Z</time>
      </trkpt>
      <trkpt lat="51.37026" lon="4.65629">
        <ele>17.5</ele>
        <time>2024-03-05T21:36:39Z</time>
      </trkpt>
      <trkpt lat="51.37012" lon="4.65637">
        <ele>17.3</ele>
        <time>2024-03-05T21:36:42Z</time>
      </trkpt>
      <trkpt lat="51.36999" lon="4.65649">
        <ele>17</ele>
        <time>2024-03-05T21:36:45Z</time>
      </trkpt>
      <trkpt lat="51.36854" lon="4.65912">
        <ele>17</ele>
        <time>2024-03-05T21:37:28Z</time>
      </trkpt>
      <trkpt lat="51.36843" lon="4.65937">
        <ele>17</ele>
        <time>2024-03-05T21:37:32Z</time>
      </trkpt>
      <trkpt lat="51.36824" lon="4.6599">
        <ele>17</ele>
        <time>2024-03-05T21:37:40Z</time>
      </trkpt>
      <trkpt lat="51.36804" lon="4.66022">
        <ele>17.3</ele>
        <time>2024-03-05T21:37:46Z</time>
      </trkpt>
      <trkpt lat="51.36642" lon="4.66249">
        <ele>18.8</ele>
        <time>2024-03-05T21:38:29Z</time>
      </trkpt>
      <trkpt lat="51.36577" lon="4.66344">
        <ele>18</ele>
        <time>2024-03-05T21:38:46Z</time>
      </trkpt>
      <trkpt lat="51.36679" lon="4.66514">
        <ele>18.3</ele>
        <time>2024-03-05T21:39:16Z</time>
      </trkpt>
      <trkpt lat="51.36742" lon="4.66628">
        <ele>20.3</ele>
        <time>2024-03-05T21:39:35Z</time>
      </trkpt>
      <trkpt lat="51.36826" lon="4.6675">
        <ele>20</ele>
        <time>2024-03-05T21:39:57Z</time>
      </trkpt>
      <trkpt lat="51.36834" lon="4.66763">
        <ele>19.8</ele>
        <time>2024-03-05T21:40:00Z</time>
      </trkpt>
      <trkpt lat="51.36846" lon="4.66751">
        <ele>19.8</ele>
        <time>2024-03-05T21:40:02Z</time>
      </trkpt>
      <trkpt lat="51.36989" lon="4.66626">
        <ele>18.5</ele>
        <time>2024-03-05T21:40:35Z</time>
      </trkpt>
      <trkpt lat="51.37063" lon="4.66563">
        <ele>19.8</ele>
        <time>2024-03-05T21:40:52Z</time>
      </trkpt>
      <trkpt lat="51.37093" lon="4.6654">
        <ele>19.5</ele>
        <time>2024-03-05T21:40:58Z</time>
      </trkpt>
      <trkpt lat="51.37235" lon="4.6644">
        <ele>16.8</ele>
        <time>2024-03-05T21:41:29Z</time>
      </trkpt>
      <trkpt lat="51.37467" lon="4.6631">
        <ele>16.8</ele>
        <time>2024-03-05T21:42:19Z</time>
      </trkpt>
      <trkpt lat="51.37515" lon="4.6627">
        <ele>16.3</ele>
        <time>2024-03-05T21:42:29Z</time>
      </trkpt>
      <trkpt lat="51.37575" lon="4.66211">
        <ele>16.8</ele>
        <time>2024-03-05T21:42:44Z</time>
      </trkpt>
      <trkpt lat="51.37607" lon="4.66187">
        <ele>17.3</ele>
        <time>2024-03-05T21:42:51Z</time>
      </trkpt>
      <trkpt lat="51.3763" lon="4.66172">
        <ele>17.5</ele>
        <time>2024-03-05T21:42:56Z</time>
      </trkpt>
      <trkpt lat="51.37644" lon="4.66165">
        <ele>17.5</ele>
        <time>2024-03-05T21:42:59Z</time>
      </trkpt>
      <trkpt lat="51.37682" lon="4.66151">
        <ele>18</ele>
        <time>2024-03-05T21:43:06Z</time>
      </trkpt>
      <trkpt lat="51.37714" lon="4.66144">
        <ele>19</ele>
        <time>2024-03-05T21:43:13Z</time>
      </trkpt>
      <trkpt lat="51.37744" lon="4.66133">
        <ele>20</ele>
        <time>2024-03-05T21:43:19Z</time>
      </trkpt>
      <trkpt lat="51.37771" lon="4.66113">
        <ele>20.5</ele>
        <time>2024-03-05T21:43:25Z</time>
      </trkpt>
      <trkpt lat="51.37795" lon="4.66088">
        <ele>21</ele>
        <time>2024-03-05T21:43:31Z</time>
      </trkpt>
      <trkpt lat="51.37813" lon="4.66056">
        <ele>21</ele>
        <time>2024-03-05T21:43:36Z</time>
      </trkpt>
      <trkpt lat="51.37901" lon="4.65871">
        <ele>20</ele>
        <time>2024-03-05T21:44:05Z</time>
      </trkpt>
      <trkpt lat="51.37929" lon="4.65818">
        <ele>20</ele>
        <time>2024-03-05T21:44:14Z</time>
      </trkpt>
      <trkpt lat="51.38169" lon="4.65442">
        <ele>17</ele>
        <time>2024-03-05T21:45:21Z</time>
      </trkpt>
      <trkpt lat="51.38207" lon="4.65402">
        <ele>17</ele>
        <time>2024-03-05T21:45:30Z</time>
      </trkpt>
      <trkpt lat="51.38254" lon="4.65385">
        <ele>17</ele>
        <time>2024-03-05T21:45:40Z</time>
      </trkpt>
      <trkpt lat="51.3829" lon="4.65378">
        <ele>17</ele>
        <time>2024-03-05T21:45:47Z</time>
      </trkpt>
      <trkpt lat="51.38287" lon="4.65257">
        <ele>15.5</ele>
        <time>2024-03-05T21:46:02Z</time>
      </trkpt>
      <trkpt lat="51.38279" lon="4.65089">
        <ele>14.5</ele>
        <time>2024-03-05T21:46:23Z</time>
      </trkpt>
      <trkpt lat="51.38254" lon="4.64978">
        <ele>15</ele>
        <time>2024-03-05T21:46:38Z</time>
      </trkpt>
      <trkpt lat="51.38249" lon="4.64955">
        <ele>15.5</ele>
        <time>2024-03-05T21:46:41Z</time>
      </trkpt>
      <trkpt lat="51.3825" lon="4.64789">
        <ele>16.5</ele>
        <time>2024-03-05T21:47:02Z</time>
      </trkpt>
      <trkpt lat="51.38256" lon="4.6462">
        <ele>17.3</ele>
        <time>2024-03-05T21:47:23Z</time>
      </trkpt>
      <trkpt lat="51.38177" lon="4.64606">
        <ele>17.3</ele>
        <time>2024-03-05T21:47:38Z</time>
      </trkpt>
      <trkpt lat="51.38181" lon="4.64437">
        <ele>16.3</ele>
        <time>2024-03-05T21:47:59Z</time>
      </trkpt>
      <trkpt lat="51.38187" lon="4.63958">
        <ele>17.8</ele>
        <time>2024-03-05T21:48:59Z</time>
      </trkpt>
      <trkpt lat="51.3819" lon="4.63485">
        <ele>18</ele>
        <time>2024-03-05T21:49:58Z</time>
      </trkpt>
      <trkpt lat="51.38191" lon="4.63459">
        <ele>18</ele>
        <time>2024-03-05T21:50:02Z</time>
      </trkpt>
      <trkpt lat="51.38167" lon="4.63194">
        <ele>19.5</ele>
        <time>2024-03-05T21:50:35Z</time>
      </trkpt>
      <trkpt lat="51.38168" lon="4.63192">
        <ele>19.5</ele>
        <time>2024-03-05T21:50:35Z</time>
      </trkpt>
      <trkpt lat="51.38169" lon="4.63176">
        <ele>19.8</ele>
        <time>2024-03-05T21:50:37Z</time>
      </trkpt>
      <trkpt lat="51.3817" lon="4.63164">
        <ele>19.8</ele>
        <time>2024-03-05T21:50:39Z</time>
      </trkpt>
      <trkpt lat="51.38202" lon="4.62989">
        <ele>17.8</ele>
        <time>2024-03-05T21:51:02Z</time>
      </trkpt>
      <trkpt lat="51.38204" lon="4.62981">
        <ele>17.8</ele>
        <time>2024-03-05T21:51:03Z</time>
      </trkpt>
      <trkpt lat="51.38206" lon="4.62965">
        <ele>17.3</ele>
        <time>2024-03-05T21:51:05Z</time>
      </trkpt>
      <trkpt lat="51.38209" lon="4.62867">
        <ele>15.8</ele>
        <time>2024-03-05T21:51:17Z</time>
      </trkpt>
      <trkpt lat="51.38209" lon="4.62834">
        <ele>15.5</ele>
        <time>2024-03-05T21:51:21Z</time>
      </trkpt>
      <trkpt lat="51.38205" lon="4.62801">
        <ele>15.5</ele>
        <time>2024-03-05T21:51:25Z</time>
      </trkpt>
      <trkpt lat="51.38201" lon="4.62768">
        <ele>15.5</ele>
        <time>2024-03-05T21:51:30Z</time>
      </trkpt>
      <trkpt lat="51.38189" lon="4.62716">
        <ele>16.5</ele>
        <time>2024-03-05T21:51:37Z</time>
      </trkpt>
      <trkpt lat="51.38181" lon="4.62673">
        <ele>17.3</ele>
        <time>2024-03-05T21:51:42Z</time>
      </trkpt>
      <trkpt lat="51.38163" lon="4.62635">
        <ele>17.5</ele>
        <time>2024-03-05T21:51:48Z</time>
      </trkpt>
      <trkpt lat="51.38061" lon="4.62458">
        <ele>17.3</ele>
        <time>2024-03-05T21:52:18Z</time>
      </trkpt>
      <trkpt lat="51.38067" lon="4.62458">
        <ele>17</ele>
        <time>2024-03-05T21:52:19Z</time>
      </trkpt>
      <trkpt lat="51.38137" lon="4.62463">
        <ele>16</ele>
        <time>2024-03-05T21:52:34Z</time>
      </trkpt>
      <trkpt lat="51.38145" lon="4.6246">
        <ele>15.8</ele>
        <time>2024-03-05T21:52:35Z</time>
      </trkpt>
      <trkpt lat="51.38158" lon="4.62443">
        <ele>15.3</ele>
        <time>2024-03-05T21:52:38Z</time>
      </trkpt>
      <trkpt lat="51.38189" lon="4.62398">
        <ele>14.5</ele>
        <time>2024-03-05T21:52:47Z</time>
      </trkpt>
      <trkpt lat="51.38238" lon="4.62321">
        <ele>13.8</ele>
        <time>2024-03-05T21:53:01Z</time>
      </trkpt>
      <trkpt lat="51.38249" lon="4.62301">
        <ele>13.5</ele>
        <time>2024-03-05T21:53:04Z</time>
      </trkpt>
      <trkpt lat="51.38258" lon="4.62281">
        <ele>13.3</ele>
        <time>2024-03-05T21:53:07Z</time>
      </trkpt>
      <trkpt lat="51.38274" lon="4.62246">
        <ele>12.8</ele>
        <time>2024-03-05T21:53:12Z</time>
      </trkpt>
      <trkpt lat="51.38294" lon="4.62211">
        <ele>13</ele>
        <time>2024-03-05T21:53:18Z</time>
      </trkpt>
      <trkpt lat="51.38324" lon="4.62165">
        <ele>12.8</ele>
        <time>2024-03-05T21:53:27Z</time>
      </trkpt>
      <trkpt lat="51.38335" lon="4.62151">
        <ele>13</ele>
        <time>2024-03-05T21:53:30Z</time>
      </trkpt>
      <trkpt lat="51.38361" lon="4.62126">
        <ele>13.3</ele>
        <time>2024-03-05T21:53:36Z</time>
      </trkpt>
      <trkpt lat="51.38433" lon="4.62054">
        <ele>13.8</ele>
        <time>2024-03-05T21:53:52Z</time>
      </trkpt>
      <trkpt lat="51.38334" lon="4.61881">
        <ele>13</ele>
        <time>2024-03-05T21:54:22Z</time>
      </trkpt>
      <trkpt lat="51.38333" lon="4.6188">
        <ele>12.8</ele>
        <time>2024-03-05T21:54:22Z</time>
      </trkpt>
      <trkpt lat="51.38314" lon="4.61846">
        <ele>13</ele>
        <time>2024-03-05T21:54:28Z</time>
      </trkpt>
      <trkpt lat="51.38212" lon="4.61659">
        <ele>19.3</ele>
        <time>2024-03-05T21:54:59Z</time>
      </trkpt>
      <trkpt lat="51.3812" lon="4.61497">
        <ele>22.5</ele>
        <time>2024-03-05T21:55:26Z</time>
      </trkpt>
      <trkpt lat="51.3809" lon="4.61447">
        <ele>23.5</ele>
        <time>2024-03-05T21:55:35Z</time>
      </trkpt>
      <trkpt lat="51.37997" lon="4.61285">
        <ele>21.8</ele>
        <time>2024-03-05T21:56:02Z</time>
      </trkpt>
      <trkpt lat="51.37968" lon="4.61235">
        <ele>21</ele>
        <time>2024-03-05T21:56:11Z</time>
      </trkpt>
      <trkpt lat="51.37955" lon="4.61209">
        <ele>21</ele>
        <time>2024-03-05T21:56:15Z</time>
      </trkpt>
      <trkpt lat="51.38" lon="4.61191">
        <ele>20.8</ele>
        <time>2024-03-05T21:56:24Z</time>
      </trkpt>
      <trkpt lat="51.38308" lon="4.61067">
        <ele>19.8</ele>
        <time>2024-03-05T21:57:27Z</time>
      </trkpt>
      <trkpt lat="51.38317" lon="4.61051">
        <ele>19.8</ele>
        <time>2024-03-05T21:57:30Z</time>
      </trkpt>
      <trkpt lat="51.38322" lon="4.61028">
        <ele>19.8</ele>
        <time>2024-03-05T21:57:33Z</time>
      </trkpt>
      <trkpt lat="51.38329" lon="4.60952">
        <ele>19.8</ele>
        <time>2024-03-05T21:57:43Z</time>
      </trkpt>
      <trkpt lat="51.38355" lon="4.60847">
        <ele>20.5</ele>
        <time>2024-03-05T21:57:57Z</time>
      </trkpt>
      <trkpt lat="51.38389" lon="4.60746">
        <ele>19.5</ele>
        <time>2024-03-05T21:58:11Z</time>
      </trkpt>
      <trkpt lat="51.38399" lon="4.60721">
        <ele>19</ele>
        <time>2024-03-05T21:58:15Z</time>
      </trkpt>
      <trkpt lat="51.38403" lon="4.60712">
        <ele>19</ele>
        <time>2024-03-05T21:58:16Z</time>
      </trkpt>
      <trkpt lat="51.38406" lon="4.60696">
        <ele>18.8</ele>
        <time>2024-03-05T21:58:18Z</time>
      </trkpt>
      <trkpt lat="51.38406" lon="4.60687">
        <ele>18.5</ele>
        <time>2024-03-05T21:58:20Z</time>
      </trkpt>
      <trkpt lat="51.38402" lon="4.6063">
        <ele>17.5</ele>
        <time>2024-03-05T21:58:27Z</time>
      </trkpt>
      <trkpt lat="51.38508" lon="4.6061">
        <ele>18.3</ele>
        <time>2024-03-05T21:58:48Z</time>
      </trkpt>
      <trkpt lat="51.38635" lon="4.60579">
        <ele>14.8</ele>
        <time>2024-03-05T21:59:14Z</time>
      </trkpt>
      <trkpt lat="51.38632" lon="4.60534">
        <ele>14.8</ele>
        <time>2024-03-05T21:59:19Z</time>
      </trkpt>
      <trkpt lat="51.38631" lon="4.60525">
        <ele>14.8</ele>
        <time>2024-03-05T21:59:21Z</time>
      </trkpt>
      <trkpt lat="51.38628" lon="4.60491">
        <ele>15</ele>
        <time>2024-03-05T21:59:25Z</time>
      </trkpt>
      <trkpt lat="51.38625" lon="4.60481">
        <ele>15</ele>
        <time>2024-03-05T21:59:26Z</time>
      </trkpt>
      <trkpt lat="51.38603" lon="4.6047">
        <ele>15.8</ele>
        <time>2024-03-05T21:59:31Z</time>
      </trkpt>
      <trkpt lat="51.38597" lon="4.60466">
        <ele>16</ele>
        <time>2024-03-05T21:59:32Z</time>
      </trkpt>
      <trkpt lat="51.38594" lon="4.60456">
        <ele>16.3</ele>
        <time>2024-03-05T21:59:33Z</time>
      </trkpt>
      <trkpt lat="51.38591" lon="4.60348">
        <ele>17.5</ele>
        <time>2024-03-05T21:59:47Z</time>
      </trkpt>
      <trkpt lat="51.3859" lon="4.60224">
        <ele>16.3</ele>
        <time>2024-03-05T22:00:02Z</time>
      </trkpt>
      <trkpt lat="51.3863" lon="4.60205">
        <ele>15</ele>
        <time>2024-03-05T22:00:11Z</time>
      </trkpt>
      <trkpt lat="51.38669" lon="4.60173">
        <ele>14</ele>
        <time>2024-03-05T22:00:20Z</time>
      </trkpt>
      <trkpt lat="51.38689" lon="4.60148">
        <ele>14</ele>
        <time>2024-03-05T22:00:25Z</time>
      </trkpt>
      <trkpt lat="51.38695" lon="4.60139">
        <ele>14</ele>
        <time>2024-03-05T22:00:26Z</time>
      </trkpt>
      <trkpt lat="51.38704" lon="4.60126">
        <ele>14.3</ele>
        <time>2024-03-05T22:00:29Z</time>
      </trkpt>
      <trkpt lat="51.38737" lon="4.6006">
        <ele>15</ele>
        <time>2024-03-05T22:00:39Z</time>
      </trkpt>
      <trkpt lat="51.38751" lon="4.60041">
        <ele>15</ele>
        <time>2024-03-05T22:00:43Z</time>
      </trkpt>
      <trkpt lat="51.38768" lon="4.60024">
        <ele>15</ele>
        <time>2024-03-05T22:00:47Z</time>
      </trkpt>
      <trkpt lat="51.38786" lon="4.60007">
        <ele>15.3</ele>
        <time>2024-03-05T22:00:51Z</time>
      </trkpt>
      <trkpt lat="51.3884" lon="4.59971">
        <ele>16.3</ele>
        <time>2024-03-05T22:01:03Z</time>
      </trkpt>
      <trkpt lat="51.38858" lon="4.59961">
        <ele>16.5</ele>
        <time>2024-03-05T22:01:07Z</time>
      </trkpt>
      <trkpt lat="51.38877" lon="4.60113">
        <ele>16</ele>
        <time>2024-03-05T22:01:26Z</time>
      </trkpt>
      <trkpt lat="51.38896" lon="4.60276">
        <ele>15.8</ele>
        <time>2024-03-05T22:01:47Z</time>
      </trkpt>
      <trkpt lat="51.38905" lon="4.60366">
        <ele>16.5</ele>
        <time>2024-03-05T22:01:58Z</time>
      </trkpt>
      <trkpt lat="51.38907" lon="4.60379">
        <ele>16.8</ele>
        <time>2024-03-05T22:02:00Z</time>
      </trkpt>
      <trkpt lat="51.389" lon="4.60399">
        <ele>16.5</ele>
        <time>2024-03-05T22:02:03Z</time>
      </trkpt>
      <trkpt lat="51.38901" lon="4.60436">
        <ele>16.3</ele>
        <time>2024-03-05T22:02:07Z</time>
      </trkpt>
      <trkpt lat="51.3891" lon="4.60511">
        <ele>15.8</ele>
        <time>2024-03-05T22:02:17Z</time>
      </trkpt>
      <trkpt lat="51.38912" lon="4.60534">
        <ele>15.8</ele>
        <time>2024-03-05T22:02:20Z</time>
      </trkpt>
      <trkpt lat="51.38917" lon="4.60557">
        <ele>16</ele>
        <time>2024-03-05T22:02:23Z</time>
      </trkpt>
      <trkpt lat="51.38929" lon="4.60574">
        <ele>16.3</ele>
        <time>2024-03-05T22:02:26Z</time>
      </trkpt>
      <trkpt lat="51.38932" lon="4.60588">
        <ele>16.3</ele>
        <time>2024-03-05T22:02:28Z</time>
      </trkpt>
      <trkpt lat="51.38937" lon="4.60616">
        <ele>16.3</ele>
        <time>2024-03-05T22:02:31Z</time>
      </trkpt>
      <trkpt lat="51.38954" lon="4.6069">
        <ele>16.3</ele>
        <time>2024-03-05T22:02:41Z</time>
      </trkpt>
      <trkpt lat="51.38977" lon="4.6081">
        <ele>17</ele>
        <time>2024-03-05T22:02:57Z</time>
      </trkpt>
      <trkpt lat="51.38972" lon="4.60817">
        <ele>16.8</ele>
        <time>2024-03-05T22:02:58Z</time>
      </trkpt>
      <trkpt lat="51.38971" lon="4.60827">
        <ele>16.8</ele>
        <time>2024-03-05T22:02:59Z</time>
      </trkpt>
      <trkpt lat="51.3897" lon="4.60834">
        <ele>16.8</ele>
        <time>2024-03-05T22:03:00Z</time>
      </trkpt>
      <trkpt lat="51.38975" lon="4.60863">
        <ele>16.5</ele>
        <time>2024-03-05T22:03:04Z</time>
      </trkpt>
      <trkpt lat="51.38984" lon="4.60895">
        <ele>16.5</ele>
        <time>2024-03-05T22:03:08Z</time>
      </trkpt>
      <trkpt lat="51.38989" lon="4.60906">
        <ele>16.5</ele>
        <time>2024-03-05T22:03:10Z</time>
      </trkpt>
      <trkpt lat="51.38996" lon="4.60915">
        <ele>16.8</ele>
        <time>2024-03-05T22:03:12Z</time>
      </trkpt>
      <trkpt lat="51.39004" lon="4.60921">
        <ele>16.8</ele>
        <time>2024-03-05T22:03:14Z</time>
      </trkpt>
      <trkpt lat="51.39013" lon="4.60926">
        <ele>16.8</ele>
        <time>2024-03-05T22:03:16Z</time>
      </trkpt>
      <trkpt lat="51.39042" lon="4.6094">
        <ele>16.5</ele>
        <time>2024-03-05T22:03:22Z</time>
      </trkpt>
      <trkpt lat="51.39063" lon="4.60953">
        <ele>16.8</ele>
        <time>2024-03-05T22:03:26Z</time>
      </trkpt>
      <trkpt lat="51.39076" lon="4.60966">
        <ele>16.8</ele>
        <time>2024-03-05T22:03:29Z</time>
      </trkpt>
      <trkpt lat="51.39089" lon="4.60983">
        <ele>16.8</ele>
        <time>2024-03-05T22:03:33Z</time>
      </trkpt>
      <trkpt lat="51.39101" lon="4.61009">
        <ele>16.5</ele>
        <time>2024-03-05T22:03:37Z</time>
      </trkpt>
      <trkpt lat="51.39116" lon="4.6105">
        <ele>16.3</ele>
        <time>2024-03-05T22:03:43Z</time>
      </trkpt>
      <trkpt lat="51.39158" lon="4.61177">
        <ele>17.3</ele>
        <time>2024-03-05T22:04:00Z</time>
      </trkpt>
      <trkpt lat="51.39164" lon="4.61192">
        <ele>17.3</ele>
        <time>2024-03-05T22:04:03Z</time>
      </trkpt>
      <trkpt lat="51.39172" lon="4.612">
        <ele>17.3</ele>
        <time>2024-03-05T22:04:05Z</time>
      </trkpt>
      <trkpt lat="51.3927" lon="4.61209">
        <ele>19</ele>
        <time>2024-03-05T22:04:24Z</time>
      </trkpt>
      <trkpt lat="51.39375" lon="4.61226">
        <ele>19.5</ele>
        <time>2024-03-05T22:04:45Z</time>
      </trkpt>
      <trkpt lat="51.39443" lon="4.61285">
        <ele>19.5</ele>
        <time>2024-03-05T22:05:01Z</time>
      </trkpt>
      <trkpt lat="51.39559" lon="4.61404">
        <ele>21.3</ele>
        <time>2024-03-05T22:05:28Z</time>
      </trkpt>
      <trkpt lat="51.39673" lon="4.6153">
        <ele>19</ele>
        <time>2024-03-05T22:05:56Z</time>
      </trkpt>
      <trkpt lat="51.39695" lon="4.6154">
        <ele>18.5</ele>
        <time>2024-03-05T22:06:01Z</time>
      </trkpt>
      <trkpt lat="51.39724" lon="4.61526">
        <ele>18</ele>
        <time>2024-03-05T22:06:07Z</time>
      </trkpt>
      <trkpt lat="51.39811" lon="4.61411">
        <ele>19.3</ele>
        <time>2024-03-05T22:06:29Z</time>
      </trkpt>
      <trkpt lat="51.39899" lon="4.61271">
        <ele>16.5</ele>
        <time>2024-03-05T22:06:54Z</time>
      </trkpt>
      <trkpt lat="51.39922" lon="4.61259">
        <ele>14.8</ele>
        <time>2024-03-05T22:06:59Z</time>
      </trkpt>
      <trkpt lat="51.39938" lon="4.61262">
        <ele>14.5</ele>
        <time>2024-03-05T22:07:02Z</time>
      </trkpt>
      <trkpt lat="51.39954" lon="4.61263">
        <ele>14.3</ele>
        <time>2024-03-05T22:07:05Z</time>
      </trkpt>
      <trkpt lat="51.40088" lon="4.6134">
        <ele>13.8</ele>
        <time>2024-03-05T22:07:34Z</time>
      </trkpt>
      <trkpt lat="51.40112" lon="4.61346">
        <ele>13.8</ele>
        <time>2024-03-05T22:07:39Z</time>
      </trkpt>
      <trkpt lat="51.40221" lon="4.61379">
        <ele>13.5</ele>
        <time>2024-03-05T22:08:01Z</time>
      </trkpt>
      <trkpt lat="51.40238" lon="4.61382">
        <ele>13.3</ele>
        <time>2024-03-05T22:08:04Z</time>
      </trkpt>
      <trkpt lat="51.40254" lon="4.61383">
        <ele>13.3</ele>
        <time>2024-03-05T22:08:07Z</time>
      </trkpt>
      <trkpt lat="51.4027" lon="4.61379">
        <ele>13</ele>
        <time>2024-03-05T22:08:11Z</time>
      </trkpt>
      <trkpt lat="51.40349" lon="4.61348">
        <ele>11.8</ele>
        <time>2024-03-05T22:08:27Z</time>
      </trkpt>
      <trkpt lat="51.40397" lon="4.6133">
        <ele>11.3</ele>
        <time>2024-03-05T22:08:37Z</time>
      </trkpt>
      <trkpt lat="51.40484" lon="4.613">
        <ele>13</ele>
        <time>2024-03-05T22:08:55Z</time>
      </trkpt>
      <trkpt lat="51.4058" lon="4.61229">
        <ele>13.5</ele>
        <time>2024-03-05T22:09:16Z</time>
      </trkpt>
      <trkpt lat="51.40595" lon="4.61225">
        <ele>13.5</ele>
        <time>2024-03-05T22:09:19Z</time>
      </trkpt>
      <trkpt lat="51.40599" lon="4.61222">
        <ele>13.5</ele>
        <time>2024-03-05T22:09:20Z</time>
      </trkpt>
      <trkpt lat="51.40612" lon="4.61211">
        <ele>13.5</ele>
        <time>2024-03-05T22:09:23Z</time>
      </trkpt>
      <trkpt lat="51.40625" lon="4.61196">
        <ele>13.5</ele>
        <time>2024-03-05T22:09:26Z</time>
      </trkpt>
      <trkpt lat="51.40637" lon="4.61179">
        <ele>13.5</ele>
        <time>2024-03-05T22:09:29Z</time>
      </trkpt>
      <trkpt lat="51.40671" lon="4.61102">
        <ele>14</ele>
        <time>2024-03-05T22:09:41Z</time>
      </trkpt>
      <trkpt lat="51.40679" lon="4.61076">
        <ele>14</ele>
        <time>2024-03-05T22:09:45Z</time>
      </trkpt>
      <trkpt lat="51.40681" lon="4.61062">
        <ele>13.8</ele>
        <time>2024-03-05T22:09:46Z</time>
      </trkpt>
      <trkpt lat="51.4068" lon="4.61039">
        <ele>13.8</ele>
        <time>2024-03-05T22:09:49Z</time>
      </trkpt>
      <trkpt lat="51.40671" lon="4.60965">
        <ele>14</ele>
        <time>2024-03-05T22:09:59Z</time>
      </trkpt>
      <trkpt lat="51.40661" lon="4.6089">
        <ele>14</ele>
        <time>2024-03-05T22:10:08Z</time>
      </trkpt>
      <trkpt lat="51.40656" lon="4.60864">
        <ele>14</ele>
        <time>2024-03-05T22:10:12Z</time>
      </trkpt>
      <trkpt lat="51.4065" lon="4.60842">
        <ele>14</ele>
        <time>2024-03-05T22:10:15Z</time>
      </trkpt>
      <trkpt lat="51.40646" lon="4.60822">
        <ele>14</ele>
        <time>2024-03-05T22:10:17Z</time>
      </trkpt>
      <trkpt lat="51.40631" lon="4.60683">
        <ele>14</ele>
        <time>2024-03-05T22:10:35Z</time>
      </trkpt>
      <trkpt lat="51.40622" lon="4.60536">
        <ele>13.8</ele>
        <time>2024-03-05T22:10:53Z</time>
      </trkpt>
      <trkpt lat="51.40617" lon="4.60512">
        <ele>13.8</ele>
        <time>2024-03-05T22:10:56Z</time>
      </trkpt>
      <trkpt lat="51.40608" lon="4.60481">
        <ele>13.5</ele>
        <time>2024-03-05T22:11:01Z</time>
      </trkpt>
      <trkpt lat="51.40597" lon="4.60456">
        <ele>13.8</ele>
        <time>2024-03-05T22:11:05Z</time>
      </trkpt>
      <trkpt lat="51.4059" lon="4.60443">
        <ele>13.8</ele>
        <time>2024-03-05T22:11:07Z</time>
      </trkpt>
      <trkpt lat="51.406" lon="4.60428">
        <ele>14</ele>
        <time>2024-03-05T22:11:10Z</time>
      </trkpt>
      <trkpt lat="51.40708" lon="4.60307">
        <ele>15</ele>
        <time>2024-03-05T22:11:36Z</time>
      </trkpt>
      <trkpt lat="51.40742" lon="4.60267">
        <ele>14.8</ele>
        <time>2024-03-05T22:11:44Z</time>
      </trkpt>
      <trkpt lat="51.40738" lon="4.60238">
        <ele>15</ele>
        <time>2024-03-05T22:11:48Z</time>
      </trkpt>
      <trkpt lat="51.40731" lon="4.60142">
        <ele>15</ele>
        <time>2024-03-05T22:12:00Z</time>
      </trkpt>
      <trkpt lat="51.4073" lon="4.60052">
        <ele>15</ele>
        <time>2024-03-05T22:12:11Z</time>
      </trkpt>
      <trkpt lat="51.40743" lon="4.59712">
        <ele>15</ele>
        <time>2024-03-05T22:12:54Z</time>
      </trkpt>
      <trkpt lat="51.40751" lon="4.59346">
        <ele>14</ele>
        <time>2024-03-05T22:13:40Z</time>
      </trkpt>
      <trkpt lat="51.40752" lon="4.59194">
        <ele>14.5</ele>
        <time>2024-03-05T22:13:59Z</time>
      </trkpt>
      <trkpt lat="51.40754" lon="4.5907">
        <ele>15</ele>
        <time>2024-03-05T22:14:14Z</time>
      </trkpt>
      <trkpt lat="51.40753" lon="4.59029">
        <ele>15</ele>
        <time>2024-03-05T22:14:19Z</time>
      </trkpt>
      <trkpt lat="51.40751" lon="4.59018">
        <ele>15</ele>
        <time>2024-03-05T22:14:21Z</time>
      </trkpt>
      <trkpt lat="51.40766" lon="4.59014">
        <ele>14.8</ele>
        <time>2024-03-05T22:14:24Z</time>
      </trkpt>
      <trkpt lat="51.40956" lon="4.58959">
        <ele>16</ele>
        <time>2024-03-05T22:15:02Z</time>
      </trkpt>
      <trkpt lat="51.40987" lon="4.58952">
        <ele>15.5</ele>
        <time>2024-03-05T22:15:08Z</time>
      </trkpt>
      <trkpt lat="51.41054" lon="4.58899">
        <ele>15</ele>
        <time>2024-03-05T22:15:23Z</time>
      </trkpt>
      <trkpt lat="51.41109" lon="4.58853">
        <ele>15</ele>
        <time>2024-03-05T22:15:36Z</time>
      </trkpt>
      <trkpt lat="51.41172" lon="4.58842">
        <ele>14.8</ele>
        <time>2024-03-05T22:15:48Z</time>
      </trkpt>
      <trkpt lat="51.4124" lon="4.5877">
        <ele>14</ele>
        <time>2024-03-05T22:16:05Z</time>
      </trkpt>
      <trkpt lat="51.41358" lon="4.58642">
        <ele>14.5</ele>
        <time>2024-03-05T22:16:33Z</time>
      </trkpt>
      <trkpt lat="51.41377" lon="4.58613">
        <ele>15</ele>
        <time>2024-03-05T22:16:38Z</time>
      </trkpt>
      <trkpt lat="51.41379" lon="4.5861">
        <ele>15</ele>
        <time>2024-03-05T22:16:39Z</time>
      </trkpt>
      <trkpt lat="51.41402" lon="4.58559">
        <ele>15.8</ele>
        <time>2024-03-05T22:16:47Z</time>
      </trkpt>
      <trkpt lat="51.41425" lon="4.5851">
        <ele>15.8</ele>
        <time>2024-03-05T22:16:54Z</time>
      </trkpt>
      <trkpt lat="51.41427" lon="4.58506">
        <ele>15.8</ele>
        <time>2024-03-05T22:16:55Z</time>
      </trkpt>
      <trkpt lat="51.41567" lon="4.58264">
        <ele>16.8</ele>
        <time>2024-03-05T22:17:36Z</time>
      </trkpt>
      <trkpt lat="51.41591" lon="4.58222">
        <ele>16.5</ele>
        <time>2024-03-05T22:17:43Z</time>
      </trkpt>
      <trkpt lat="51.41783" lon="4.57893">
        <ele>15</ele>
        <time>2024-03-05T22:18:40Z</time>
      </trkpt>
      <trkpt lat="51.41834" lon="4.5796">
        <ele>15</ele>
        <time>2024-03-05T22:18:53Z</time>
      </trkpt>
      <trkpt lat="51.42185" lon="4.57239">
        <ele>13</ele>
        <time>2024-03-05T22:20:47Z</time>
      </trkpt>
      <trkpt lat="51.4221" lon="4.5721">
        <ele>13</ele>
        <time>2024-03-05T22:20:53Z</time>
      </trkpt>
      <trkpt lat="51.42274" lon="4.57177">
        <ele>13</ele>
        <time>2024-03-05T22:21:07Z</time>
      </trkpt>
      <trkpt lat="51.42316" lon="4.57169">
        <ele>13</ele>
        <time>2024-03-05T22:21:15Z</time>
      </trkpt>
      <trkpt lat="51.42382" lon="4.5716">
        <ele>13</ele>
        <time>2024-03-05T22:21:28Z</time>
      </trkpt>
      <trkpt lat="51.42999" lon="4.57102">
        <ele>11.8</ele>
        <time>2024-03-05T22:23:32Z</time>
      </trkpt>
      <trkpt lat="51.42999" lon="4.571">
        <ele>11.8</ele>
        <time>2024-03-05T22:23:32Z</time>
      </trkpt>
      <trkpt lat="51.4299" lon="4.57004">
        <ele>12</ele>
        <time>2024-03-05T22:23:44Z</time>
      </trkpt>
      <trkpt lat="51.42988" lon="4.5699">
        <ele>11.8</ele>
        <time>2024-03-05T22:23:46Z</time>
      </trkpt>
      <trkpt lat="51.42985" lon="4.5698">
        <ele>11.8</ele>
        <time>2024-03-05T22:23:48Z</time>
      </trkpt>
      <trkpt lat="51.42884" lon="4.56778">
        <ele>11.8</ele>
        <time>2024-03-05T22:24:20Z</time>
      </trkpt>
      <trkpt lat="51.42839" lon="4.56653">
        <ele>12</ele>
        <time>2024-03-05T22:24:38Z</time>
      </trkpt>
      <trkpt lat="51.42812" lon="4.56471">
        <ele>12.5</ele>
        <time>2024-03-05T22:25:01Z</time>
      </trkpt>
      <trkpt lat="51.42814" lon="4.56429">
        <ele>12.8</ele>
        <time>2024-03-05T22:25:06Z</time>
      </trkpt>
      <trkpt lat="51.42697" lon="4.55842">
        <ele>11.5</ele>
        <time>2024-03-05T22:26:23Z</time>
      </trkpt>
      <trkpt lat="51.42622" lon="4.5554">
        <ele>12.5</ele>
        <time>2024-03-05T22:27:04Z</time>
      </trkpt>
      <trkpt lat="51.42602" lon="4.55467">
        <ele>12.8</ele>
        <time>2024-03-05T22:27:14Z</time>
      </trkpt>
      <trkpt lat="51.42434" lon="4.54786">
        <ele>12</ele>
        <time>2024-03-05T22:28:45Z</time>
      </trkpt>
      <trkpt lat="51.4231" lon="4.54286">
        <ele>11.8</ele>
        <time>2024-03-05T22:29:52Z</time>
      </trkpt>
      <trkpt lat="51.42299" lon="4.54238">
        <ele>11.5</ele>
        <time>2024-03-05T22:29:59Z</time>
      </trkpt>
      <trkpt lat="51.42261" lon="4.5409">
        <ele>11</ele>
        <time>2024-03-05T22:30:19Z</time>
      </trkpt>
      <trkpt lat="51.42261" lon="4.5409">
        <ele>12</ele>
        <time>2024-03-05T22:30:19Z</time>
      </trkpt>
      <trkpt lat="51.42191" lon="4.53945">
        <ele>12</ele>
        <time>2024-03-05T22:30:42Z</time>
      </trkpt>
      <trkpt lat="51.42161" lon="4.53887">
        <ele>12</ele>
        <time>2024-03-05T22:30:51Z</time>
      </trkpt>
      <trkpt lat="51.42146" lon="4.53864">
        <ele>12</ele>
        <time>2024-03-05T22:30:55Z</time>
      </trkpt>
      <trkpt lat="51.42028" lon="4.53694">
        <ele>12</ele>
        <time>2024-03-05T22:31:27Z</time>
      </trkpt>
      <trkpt lat="51.42077" lon="4.53617">
        <ele>12</ele>
        <time>2024-03-05T22:31:41Z</time>
      </trkpt>
      <trkpt lat="51.42202" lon="4.53411">
        <ele>12</ele>
        <time>2024-03-05T22:32:16Z</time>
      </trkpt>
      <trkpt lat="51.42203" lon="4.53407">
        <ele>12</ele>
        <time>2024-03-05T22:32:17Z</time>
      </trkpt>
      <trkpt lat="51.42202" lon="4.53402">
        <ele>12</ele>
        <time>2024-03-05T22:32:18Z</time>
      </trkpt>
      <trkpt lat="51.4216" lon="4.53346">
        <ele>12</ele>
        <time>2024-03-05T22:32:29Z</time>
      </trkpt>
      <trkpt lat="51.42015" lon="4.53152">
        <ele>12</ele>
        <time>2024-03-05T22:33:06Z</time>
      </trkpt>
      <trkpt lat="51.41937" lon="4.53049">
        <ele>12</ele>
        <time>2024-03-05T22:33:26Z</time>
      </trkpt>
      <trkpt lat="51.41935" lon="4.53048">
        <ele>12</ele>
        <time>2024-03-05T22:33:27Z</time>
      </trkpt>
      <trkpt lat="51.41931" lon="4.53048">
        <ele>11.8</ele>
        <time>2024-03-05T22:33:28Z</time>
      </trkpt>
      <trkpt lat="51.41898" lon="4.53101">
        <ele>13</ele>
        <time>2024-03-05T22:33:37Z</time>
      </trkpt>
      <trkpt lat="51.41823" lon="4.53222">
        <ele>13</ele>
        <time>2024-03-05T22:33:58Z</time>
      </trkpt>
      <trkpt lat="51.41413" lon="4.53872">
        <ele>12.3</ele>
        <time>2024-03-05T22:35:54Z</time>
      </trkpt>
      <trkpt lat="51.41094" lon="4.53408">
        <ele>16</ele>
        <time>2024-03-05T22:37:20Z</time>
      </trkpt>
      <trkpt lat="51.41089" lon="4.53401">
        <ele>16</ele>
        <time>2024-03-05T22:37:21Z</time>
      </trkpt>
      <trkpt lat="51.41366" lon="4.52871">
        <ele>15.3</ele>
        <time>2024-03-05T22:38:47Z</time>
      </trkpt>
      <trkpt lat="51.41401" lon="4.52806">
        <ele>15.3</ele>
        <time>2024-03-05T22:38:58Z</time>
      </trkpt>
      <trkpt lat="51.41423" lon="4.52768">
        <ele>15</ele>
        <time>2024-03-05T22:39:05Z</time>
      </trkpt>
      <trkpt lat="51.41463" lon="4.52701">
        <ele>14.3</ele>
        <time>2024-03-05T22:39:16Z</time>
      </trkpt>
      <trkpt lat="51.41472" lon="4.5269">
        <ele>14.3</ele>
        <time>2024-03-05T22:39:18Z</time>
      </trkpt>
      <trkpt lat="51.41479" lon="4.52681">
        <ele>14</ele>
        <time>2024-03-05T22:39:20Z</time>
      </trkpt>
      <trkpt lat="51.4149" lon="4.52673">
        <ele>14</ele>
        <time>2024-03-05T22:39:22Z</time>
      </trkpt>
      <trkpt lat="51.41564" lon="4.52628">
        <ele>14</ele>
        <time>2024-03-05T22:39:38Z</time>
      </trkpt>
      <trkpt lat="51.41603" lon="4.52608">
        <ele>13.8</ele>
        <time>2024-03-05T22:39:47Z</time>
      </trkpt>
      <trkpt lat="51.4186" lon="4.52483">
        <ele>12.8</ele>
        <time>2024-03-05T22:40:40Z</time>
      </trkpt>
      <trkpt lat="51.41904" lon="4.52461">
        <ele>12.8</ele>
        <time>2024-03-05T22:40:49Z</time>
      </trkpt>
      <trkpt lat="51.4191" lon="4.52457">
        <ele>12.8</ele>
        <time>2024-03-05T22:40:51Z</time>
      </trkpt>
      <trkpt lat="51.41984" lon="4.52422">
        <ele>12.8</ele>
        <time>2024-03-05T22:41:06Z</time>
      </trkpt>
      <trkpt lat="51.4211" lon="4.52363">
        <ele>13.5</ele>
        <time>2024-03-05T22:41:32Z</time>
      </trkpt>
      <trkpt lat="51.42117" lon="4.52359">
        <ele>13.5</ele>
        <time>2024-03-05T22:41:34Z</time>
      </trkpt>
      <trkpt lat="51.42151" lon="4.52344">
        <ele>13.8</ele>
        <time>2024-03-05T22:41:41Z</time>
      </trkpt>
      <trkpt lat="51.42153" lon="4.52355">
        <ele>13.5</ele>
        <time>2024-03-05T22:41:42Z</time>
      </trkpt>
      <trkpt lat="51.42239" lon="4.52314">
        <ele>12.8</ele>
        <time>2024-03-05T22:42:00Z</time>
      </trkpt>
      <trkpt lat="51.42302" lon="4.52284">
        <ele>12.3</ele>
        <time>2024-03-05T22:42:14Z</time>
      </trkpt>
      <trkpt lat="51.42306" lon="4.5227">
        <ele>12</ele>
        <time>2024-03-05T22:42:15Z</time>
      </trkpt>
      <trkpt lat="51.42375" lon="4.52238">
        <ele>12.5</ele>
        <time>2024-03-05T22:42:30Z</time>
      </trkpt>
      <trkpt lat="51.42389" lon="4.52236">
        <ele>12.5</ele>
        <time>2024-03-05T22:42:33Z</time>
      </trkpt>
      <trkpt lat="51.42431" lon="4.52212">
        <ele>12.8</ele>
        <time>2024-03-05T22:42:41Z</time>
      </trkpt>
      <trkpt lat="51.4244" lon="4.52208">
        <ele>12.8</ele>
        <time>2024-03-05T22:42:43Z</time>
      </trkpt>
      <trkpt lat="51.42442" lon="4.52218">
        <ele>12.8</ele>
        <time>2024-03-05T22:42:45Z</time>
      </trkpt>
      <trkpt lat="51.42444" lon="4.52228">
        <ele>12.8</ele>
        <time>2024-03-05T22:42:46Z</time>
      </trkpt>
      <trkpt lat="51.42439" lon="4.52245">
        <ele>12.8</ele>
        <time>2024-03-05T22:42:48Z</time>
      </trkpt>
      <trkpt lat="51.42623" lon="4.52851">
        <ele>12.3</ele>
        <time>2024-03-05T22:44:12Z</time>
      </trkpt>
      <trkpt lat="51.4263" lon="4.52874">
        <ele>12.3</ele>
        <time>2024-03-05T22:44:16Z</time>
      </trkpt>
      <trkpt lat="51.42699" lon="4.52851">
        <ele>11.8</ele>
        <time>2024-03-05T22:44:30Z</time>
      </trkpt>
      <trkpt lat="51.42793" lon="4.52821">
        <ele>12</ele>
        <time>2024-03-05T22:44:49Z</time>
      </trkpt>
      <trkpt lat="51.42848" lon="4.52801">
        <ele>12.5</ele>
        <time>2024-03-05T22:45:00Z</time>
      </trkpt>
      <trkpt lat="51.42902" lon="4.52784">
        <ele>13.3</ele>
        <time>2024-03-05T22:45:11Z</time>
      </trkpt>
      <trkpt lat="51.42942" lon="4.52777">
        <ele>13.3</ele>
        <time>2024-03-05T22:45:19Z</time>
      </trkpt>
      <trkpt lat="51.42945" lon="4.52495">
        <ele>13.8</ele>
        <time>2024-03-05T22:45:54Z</time>
      </trkpt>
      <trkpt lat="51.42944" lon="4.52482">
        <ele>13.8</ele>
        <time>2024-03-05T22:45:56Z</time>
      </trkpt>
      <trkpt lat="51.42931" lon="4.52404">
        <ele>13</ele>
        <time>2024-03-05T22:46:06Z</time>
      </trkpt>
      <trkpt lat="51.4293" lon="4.52394">
        <ele>13</ele>
        <time>2024-03-05T22:46:07Z</time>
      </trkpt>
      <trkpt lat="51.42932" lon="4.52381">
        <ele>13</ele>
        <time>2024-03-05T22:46:09Z</time>
      </trkpt>
      <trkpt lat="51.42935" lon="4.52371">
        <ele>13</ele>
        <time>2024-03-05T22:46:10Z</time>
      </trkpt>
      <trkpt lat="51.42941" lon="4.5236">
        <ele>13.3</ele>
        <time>2024-03-05T22:46:12Z</time>
      </trkpt>
      <trkpt lat="51.42948" lon="4.52351">
        <ele>13.3</ele>
        <time>2024-03-05T22:46:14Z</time>
      </trkpt>
      <trkpt lat="51.42956" lon="4.52345">
        <ele>13.3</ele>
        <time>2024-03-05T22:46:16Z</time>
      </trkpt>
      <trkpt lat="51.42968" lon="4.52338">
        <ele>13.5</ele>
        <time>2024-03-05T22:46:18Z</time>
      </trkpt>
      <trkpt lat="51.43004" lon="4.52324">
        <ele>13.8</ele>
        <time>2024-03-05T22:46:26Z</time>
      </trkpt>
      <trkpt lat="51.43019" lon="4.52322">
        <ele>13.5</ele>
        <time>2024-03-05T22:46:29Z</time>
      </trkpt>
      <trkpt lat="51.43032" lon="4.52322">
        <ele>13.5</ele>
        <time>2024-03-05T22:46:31Z</time>
      </trkpt>
      <trkpt lat="51.43056" lon="4.52345">
        <ele>13.3</ele>
        <time>2024-03-05T22:46:37Z</time>
      </trkpt>
      <trkpt lat="51.43103" lon="4.52397">
        <ele>12.8</ele>
        <time>2024-03-05T22:46:48Z</time>
      </trkpt>
      <trkpt lat="51.43157" lon="4.52448">
        <ele>12.3</ele>
        <time>2024-03-05T22:47:01Z</time>
      </trkpt>
      <trkpt lat="51.43182" lon="4.52469">
        <ele>12.5</ele>
        <time>2024-03-05T22:47:07Z</time>
      </trkpt>
      <trkpt lat="51.43204" lon="4.52484">
        <ele>12.8</ele>
        <time>2024-03-05T22:47:11Z</time>
      </trkpt>
      <trkpt lat="51.43272" lon="4.52522">
        <ele>13.3</ele>
        <time>2024-03-05T22:47:26Z</time>
      </trkpt>
      <trkpt lat="51.43322" lon="4.52545">
        <ele>13.8</ele>
        <time>2024-03-05T22:47:36Z</time>
      </trkpt>
      <trkpt lat="51.43336" lon="4.52548">
        <ele>13.8</ele>
        <time>2024-03-05T22:47:39Z</time>
      </trkpt>
      <trkpt lat="51.43349" lon="4.52547">
        <ele>13.8</ele>
        <time>2024-03-05T22:47:42Z</time>
      </trkpt>
      <trkpt lat="51.43532" lon="4.52475">
        <ele>15.3</ele>
        <time>2024-03-05T22:48:19Z</time>
      </trkpt>
      <trkpt lat="51.4356" lon="4.52412">
        <ele>15.5</ele>
        <time>2024-03-05T22:48:29Z</time>
      </trkpt>
      <trkpt lat="51.43564" lon="4.52403">
        <ele>15.8</ele>
        <time>2024-03-05T22:48:30Z</time>
      </trkpt>
      <trkpt lat="51.43625" lon="4.52271">
        <ele>14.5</ele>
        <time>2024-03-05T22:48:51Z</time>
      </trkpt>
      <trkpt lat="51.43646" lon="4.52239">
        <ele>14</ele>
        <time>2024-03-05T22:48:57Z</time>
      </trkpt>
      <trkpt lat="51.43657" lon="4.52242">
        <ele>14</ele>
        <time>2024-03-05T22:48:59Z</time>
      </trkpt>
      <trkpt lat="51.43675" lon="4.52259">
        <ele>13.8</ele>
        <time>2024-03-05T22:49:03Z</time>
      </trkpt>
      <trkpt lat="51.43781" lon="4.52382">
        <ele>14</ele>
        <time>2024-03-05T22:49:29Z</time>
      </trkpt>
      <trkpt lat="51.43789" lon="4.52386">
        <ele>14</ele>
        <time>2024-03-05T22:49:31Z</time>
      </trkpt>
      <trkpt lat="51.43797" lon="4.5239">
        <ele>14</ele>
        <time>2024-03-05T22:49:32Z</time>
      </trkpt>
      <trkpt lat="51.43824" lon="4.52394">
        <ele>14</ele>
        <time>2024-03-05T22:49:38Z</time>
      </trkpt>
      <trkpt lat="51.43847" lon="4.52402">
        <ele>13.8</ele>
        <time>2024-03-05T22:49:43Z</time>
      </trkpt>
      <trkpt lat="51.43921" lon="4.52441">
        <ele>14</ele>
        <time>2024-03-05T22:49:58Z</time>
      </trkpt>
      <trkpt lat="51.43985" lon="4.52483">
        <ele>13.8</ele>
        <time>2024-03-05T22:50:12Z</time>
      </trkpt>
      <trkpt lat="51.43992" lon="4.52492">
        <ele>13.8</ele>
        <time>2024-03-05T22:50:14Z</time>
      </trkpt>
      <trkpt lat="51.44154" lon="4.52711">
        <ele>13.3</ele>
        <time>2024-03-05T22:50:56Z</time>
      </trkpt>
      <trkpt lat="51.44163" lon="4.52719">
        <ele>13.3</ele>
        <time>2024-03-05T22:50:58Z</time>
      </trkpt>
      <trkpt lat="51.4417" lon="4.52722">
        <ele>13.3</ele>
        <time>2024-03-05T22:51:00Z</time>
      </trkpt>
      <trkpt lat="51.44193" lon="4.52714">
        <ele>13.3</ele>
        <time>2024-03-05T22:51:04Z</time>
      </trkpt>
      <trkpt lat="51.44229" lon="4.52698">
        <ele>13</ele>
        <time>2024-03-05T22:51:12Z</time>
      </trkpt>
      <trkpt lat="51.44284" lon="4.52677">
        <ele>13</ele>
        <time>2024-03-05T22:51:23Z</time>
      </trkpt>
      <trkpt lat="51.44308" lon="4.52672">
        <ele>13</ele>
        <time>2024-03-05T22:51:28Z</time>
      </trkpt>
      <trkpt lat="51.44444" lon="4.5268">
        <ele>13.5</ele>
        <time>2024-03-05T22:51:55Z</time>
      </trkpt>
      <trkpt lat="51.44475" lon="4.52674">
        <ele>13</ele>
        <time>2024-03-05T22:52:02Z</time>
      </trkpt>
      <trkpt lat="51.44505" lon="4.52662">
        <ele>13</ele>
        <time>2024-03-05T22:52:08Z</time>
      </trkpt>
      <trkpt lat="51.44597" lon="4.52623">
        <ele>13.3</ele>
        <time>2024-03-05T22:52:27Z</time>
      </trkpt>
      <trkpt lat="51.44652" lon="4.52601">
        <ele>13</ele>
        <time>2024-03-05T22:52:38Z</time>
      </trkpt>
      <trkpt lat="51.44707" lon="4.52581">
        <ele>13</ele>
        <time>2024-03-05T22:52:49Z</time>
      </trkpt>
      <trkpt lat="51.44778" lon="4.52562">
        <ele>13</ele>
        <time>2024-03-05T22:53:04Z</time>
      </trkpt>
      <trkpt lat="51.44806" lon="4.52558">
        <ele>13</ele>
        <time>2024-03-05T22:53:09Z</time>
      </trkpt>
      <trkpt lat="51.44864" lon="4.52554">
        <ele>13.3</ele>
        <time>2024-03-05T22:53:21Z</time>
      </trkpt>
      <trkpt lat="51.45062" lon="4.52568">
        <ele>14</ele>
        <time>2024-03-05T22:54:01Z</time>
      </trkpt>
      <trkpt lat="51.45079" lon="4.52571">
        <ele>14</ele>
        <time>2024-03-05T22:54:04Z</time>
      </trkpt>
      <trkpt lat="51.45083" lon="4.52572">
        <ele>14</ele>
        <time>2024-03-05T22:54:05Z</time>
      </trkpt>
      <trkpt lat="51.451" lon="4.52578">
        <ele>14</ele>
        <time>2024-03-05T22:54:08Z</time>
      </trkpt>
      <trkpt lat="51.45135" lon="4.52597">
        <ele>14.5</ele>
        <time>2024-03-05T22:54:16Z</time>
      </trkpt>
      <trkpt lat="51.4526" lon="4.52664">
        <ele>15.3</ele>
        <time>2024-03-05T22:54:42Z</time>
      </trkpt>
      <trkpt lat="51.45371" lon="4.52724">
        <ele>16.3</ele>
        <time>2024-03-05T22:55:06Z</time>
      </trkpt>
      <trkpt lat="51.45375" lon="4.52727">
        <ele>16.3</ele>
        <time>2024-03-05T22:55:06Z</time>
      </trkpt>
      <trkpt lat="51.45377" lon="4.52727">
        <ele>16.3</ele>
        <time>2024-03-05T22:55:07Z</time>
      </trkpt>
      <trkpt lat="51.45526" lon="4.52805">
        <ele>16</ele>
        <time>2024-03-05T22:55:38Z</time>
      </trkpt>
      <trkpt lat="51.45787" lon="4.52945">
        <ele>18</ele>
        <time>2024-03-05T22:56:33Z</time>
      </trkpt>
      <trkpt lat="51.4579" lon="4.52947">
        <ele>18</ele>
        <time>2024-03-05T22:56:34Z</time>
      </trkpt>
      <trkpt lat="51.45804" lon="4.52954">
        <ele>18</ele>
        <time>2024-03-05T22:56:37Z</time>
      </trkpt>
      <trkpt lat="51.46043" lon="4.53081">
        <ele>16</ele>
        <time>2024-03-05T22:57:27Z</time>
      </trkpt>
      <trkpt lat="51.46092" lon="4.53108">
        <ele>15.8</ele>
        <time>2024-03-05T22:57:38Z</time>
      </trkpt>
      <trkpt lat="51.46126" lon="4.53129">
        <ele>16.3</ele>
        <time>2024-03-05T22:57:45Z</time>
      </trkpt>
      <trkpt lat="51.46151" lon="4.53147">
        <ele>16.8</ele>
        <time>2024-03-05T22:57:50Z</time>
      </trkpt>
      <trkpt lat="51.46185" lon="4.53169">
        <ele>16.8</ele>
        <time>2024-03-05T22:57:58Z</time>
      </trkpt>
      <trkpt lat="51.46194" lon="4.53173">
        <ele>16.8</ele>
        <time>2024-03-05T22:57:59Z</time>
      </trkpt>
      <trkpt lat="51.46208" lon="4.53176">
        <ele>16.8</ele>
        <time>2024-03-05T22:58:02Z</time>
      </trkpt>
      <trkpt lat="51.46223" lon="4.53174">
        <ele>16.8</ele>
        <time>2024-03-05T22:58:05Z</time>
      </trkpt>
      <trkpt lat="51.46392" lon="4.53143">
        <ele>15.5</ele>
        <time>2024-03-05T22:58:39Z</time>
      </trkpt>
      <trkpt lat="51.46531" lon="4.53118">
        <ele>14.8</ele>
        <time>2024-03-05T22:59:07Z</time>
      </trkpt>
      <trkpt lat="51.46541" lon="4.53117">
        <ele>14.8</ele>
        <time>2024-03-05T22:59:09Z</time>
      </trkpt>
      <trkpt lat="51.46549" lon="4.53117">
        <ele>15</ele>
        <time>2024-03-05T22:59:11Z</time>
      </trkpt>
      <trkpt lat="51.46567" lon="4.53122">
        <ele>15.3</ele>
        <time>2024-03-05T22:59:15Z</time>
      </trkpt>
      <trkpt lat="51.46583" lon="4.53124">
        <ele>15.5</ele>
        <time>2024-03-05T22:59:18Z</time>
      </trkpt>
      <trkpt lat="51.46597" lon="4.5312">
        <ele>15.5</ele>
        <time>2024-03-05T22:59:21Z</time>
      </trkpt>
      <trkpt lat="51.46701" lon="4.53059">
        <ele>19</ele>
        <time>2024-03-05T22:59:43Z</time>
      </trkpt>
      <trkpt lat="51.46701" lon="4.53054">
        <ele>22.5</ele>
        <time>2024-03-05T22:59:43Z</time>
      </trkpt>
      <trkpt lat="51.46675" lon="4.5279">
        <ele>22.5</ele>
        <time>2024-03-05T23:00:17Z</time>
      </trkpt>
      <trkpt lat="51.46667" lon="4.52704">
        <ele>22.5</ele>
        <time>2024-03-05T23:00:28Z</time>
      </trkpt>
      <trkpt lat="51.46643" lon="4.52457">
        <ele>21.8</ele>
        <time>2024-03-05T23:00:59Z</time>
      </trkpt>
      <trkpt lat="51.46638" lon="4.52388">
        <ele>23</ele>
        <time>2024-03-05T23:01:07Z</time>
      </trkpt>
      <trkpt lat="51.46639" lon="4.52357">
        <ele>23.5</ele>
        <time>2024-03-05T23:01:11Z</time>
      </trkpt>
      <trkpt lat="51.46644" lon="4.52328">
        <ele>23.8</ele>
        <time>2024-03-05T23:01:15Z</time>
      </trkpt>
      <trkpt lat="51.46649" lon="4.52306">
        <ele>23.3</ele>
        <time>2024-03-05T23:01:18Z</time>
      </trkpt>
      <trkpt lat="51.46683" lon="4.5215">
        <ele>19.8</ele>
        <time>2024-03-05T23:01:38Z</time>
      </trkpt>
      <trkpt lat="51.46687" lon="4.52131">
        <ele>18.8</ele>
        <time>2024-03-05T23:01:41Z</time>
      </trkpt>
      <trkpt lat="51.46699" lon="4.52077">
        <ele>16.5</ele>
        <time>2024-03-05T23:01:48Z</time>
      </trkpt>
      <trkpt lat="51.46706" lon="4.52045">
        <ele>15.5</ele>
        <time>2024-03-05T23:01:52Z</time>
      </trkpt>
      <trkpt lat="51.46743" lon="4.51874">
        <ele>14</ele>
        <time>2024-03-05T23:02:15Z</time>
      </trkpt>
      <trkpt lat="51.46772" lon="4.51741">
        <ele>12.5</ele>
        <time>2024-03-05T23:02:32Z</time>
      </trkpt>
      <trkpt lat="51.46798" lon="4.51623">
        <ele>12.5</ele>
        <time>2024-03-05T23:02:48Z</time>
      </trkpt>
      <trkpt lat="51.46802" lon="4.516">
        <ele>12.5</ele>
        <time>2024-03-05T23:02:51Z</time>
      </trkpt>
      <trkpt lat="51.46809" lon="4.51534">
        <ele>12.8</ele>
        <time>2024-03-05T23:02:59Z</time>
      </trkpt>
      <trkpt lat="51.46825" lon="4.51385">
        <ele>12.8</ele>
        <time>2024-03-05T23:03:18Z</time>
      </trkpt>
      <trkpt lat="51.46836" lon="4.51278">
        <ele>12.3</ele>
        <time>2024-03-05T23:03:32Z</time>
      </trkpt>
      <trkpt lat="51.46837" lon="4.51261">
        <ele>12</ele>
        <time>2024-03-05T23:03:34Z</time>
      </trkpt>
      <trkpt lat="51.46836" lon="4.51246">
        <ele>11.8</ele>
        <time>2024-03-05T23:03:36Z</time>
      </trkpt>
      <trkpt lat="51.46835" lon="4.51243">
        <ele>11</ele>
        <time>2024-03-05T23:03:36Z</time>
      </trkpt>
      <trkpt lat="51.46814" lon="4.5114">
        <ele>11</ele>
        <time>2024-03-05T23:03:50Z</time>
      </trkpt>
      <trkpt lat="51.46811" lon="4.51122">
        <ele>11.3</ele>
        <time>2024-03-05T23:03:52Z</time>
      </trkpt>
      <trkpt lat="51.4681" lon="4.51106">
        <ele>11.3</ele>
        <time>2024-03-05T23:03:54Z</time>
      </trkpt>
      <trkpt lat="51.4681" lon="4.5109">
        <ele>11.5</ele>
        <time>2024-03-05T23:03:56Z</time>
      </trkpt>
      <trkpt lat="51.46816" lon="4.51007">
        <ele>11.8</ele>
        <time>2024-03-05T23:04:06Z</time>
      </trkpt>
      <trkpt lat="51.46825" lon="4.5089">
        <ele>13</ele>
        <time>2024-03-05T23:04:21Z</time>
      </trkpt>
      <trkpt lat="51.46825" lon="4.50879">
        <ele>13</ele>
        <time>2024-03-05T23:04:22Z</time>
      </trkpt>
      <trkpt lat="51.46824" lon="4.50867">
        <ele>13.3</ele>
        <time>2024-03-05T23:04:24Z</time>
      </trkpt>
      <trkpt lat="51.46821" lon="4.50852">
        <ele>13.3</ele>
        <time>2024-03-05T23:04:26Z</time>
      </trkpt>
      <trkpt lat="51.46812" lon="4.50816">
        <ele>13</ele>
        <time>2024-03-05T23:04:31Z</time>
      </trkpt>
      <trkpt lat="51.46805" lon="4.50788">
        <ele>12.8</ele>
        <time>2024-03-05T23:04:35Z</time>
      </trkpt>
      <trkpt lat="51.46795" lon="4.50745">
        <ele>12.5</ele>
        <time>2024-03-05T23:04:40Z</time>
      </trkpt>
      <trkpt lat="51.46877" lon="4.5046">
        <ele>13.3</ele>
        <time>2024-03-05T23:05:19Z</time>
      </trkpt>
      <trkpt lat="51.46895" lon="4.50397">
        <ele>14</ele>
        <time>2024-03-05T23:05:28Z</time>
      </trkpt>
      <trkpt lat="51.46908" lon="4.50356">
        <ele>14</ele>
        <time>2024-03-05T23:05:34Z</time>
      </trkpt>
      <trkpt lat="51.4692" lon="4.50313">
        <ele>13.8</ele>
        <time>2024-03-05T23:05:40Z</time>
      </trkpt>
      <trkpt lat="51.46925" lon="4.50297">
        <ele>13.5</ele>
        <time>2024-03-05T23:05:42Z</time>
      </trkpt>
      <trkpt lat="51.46938" lon="4.50252">
        <ele>13</ele>
        <time>2024-03-05T23:05:48Z</time>
      </trkpt>
      <trkpt lat="51.46926" lon="4.50227">
        <ele>12.8</ele>
        <time>2024-03-05T23:05:52Z</time>
      </trkpt>
      <trkpt lat="51.46891" lon="4.50153">
        <ele>13</ele>
        <time>2024-03-05T23:06:04Z</time>
      </trkpt>
      <trkpt lat="51.46896" lon="4.50151">
        <ele>13</ele>
        <time>2024-03-05T23:06:05Z</time>
      </trkpt>
      <trkpt lat="51.46901" lon="4.5015">
        <ele>12.8</ele>
        <time>2024-03-05T23:06:06Z</time>
      </trkpt>
      <trkpt lat="51.46966" lon="4.50129">
        <ele>11.8</ele>
        <time>2024-03-05T23:06:19Z</time>
      </trkpt>
      <trkpt lat="51.46973" lon="4.50125">
        <ele>11.8</ele>
        <time>2024-03-05T23:06:21Z</time>
      </trkpt>
      <trkpt lat="51.46976" lon="4.50128">
        <ele>11.8</ele>
        <time>2024-03-05T23:06:21Z</time>
      </trkpt>
      <trkpt lat="51.46983" lon="4.50126">
        <ele>11.5</ele>
        <time>2024-03-05T23:06:23Z</time>
      </trkpt>
      <trkpt lat="51.47094" lon="4.50089">
        <ele>11.8</ele>
        <time>2024-03-05T23:06:45Z</time>
      </trkpt>
      <trkpt lat="51.47149" lon="4.50064">
        <ele>12</ele>
        <time>2024-03-05T23:06:57Z</time>
      </trkpt>
      <trkpt lat="51.4725" lon="4.50005">
        <ele>11.8</ele>
        <time>2024-03-05T23:07:18Z</time>
      </trkpt>
      <trkpt lat="51.47253" lon="4.50003">
        <ele>11.8</ele>
        <time>2024-03-05T23:07:19Z</time>
      </trkpt>
      <trkpt lat="51.474" lon="4.49923">
        <ele>10.8</ele>
        <time>2024-03-05T23:07:50Z</time>
      </trkpt>
      <trkpt lat="51.47406" lon="4.49913">
        <ele>10.8</ele>
        <time>2024-03-05T23:07:52Z</time>
      </trkpt>
      <trkpt lat="51.47482" lon="4.49868">
        <ele>11.8</ele>
        <time>2024-03-05T23:08:08Z</time>
      </trkpt>
      <trkpt lat="51.47562" lon="4.49818">
        <ele>11.8</ele>
        <time>2024-03-05T23:08:25Z</time>
      </trkpt>
      <trkpt lat="51.47597" lon="4.49793">
        <ele>11.8</ele>
        <time>2024-03-05T23:08:33Z</time>
      </trkpt>
      <trkpt lat="51.47601" lon="4.49788">
        <ele>11.5</ele>
        <time>2024-03-05T23:08:34Z</time>
      </trkpt>
      <trkpt lat="51.47601" lon="4.4979">
        <ele>11.5</ele>
        <time>2024-03-05T23:08:34Z</time>
      </trkpt>
      <trkpt lat="51.47604" lon="4.49799">
        <ele>11.5</ele>
        <time>2024-03-05T23:08:35Z</time>
      </trkpt>
      <trkpt lat="51.47605" lon="4.49803">
        <ele>11.5</ele>
        <time>2024-03-05T23:08:36Z</time>
      </trkpt>
      <trkpt lat="51.47625" lon="4.49788">
        <ele>11.3</ele>
        <time>2024-03-05T23:08:40Z</time>
      </trkpt>
      <trkpt lat="51.47626" lon="4.49787">
        <ele>11.3</ele>
        <time>2024-03-05T23:08:41Z</time>
      </trkpt>
      <trkpt lat="51.47829" lon="4.49644">
        <ele>10.5</ele>
        <time>2024-03-05T23:09:25Z</time>
      </trkpt>
    </trkseg>
  </trk>
</gpx>